<?xml version="1.0" encoding="UTF-8" standalone="no" ?>
<gpx xmlns="http://www.topografix.com/GPX/1/1" xmlns:xsi="http://www.w3.org/2001/XMLSchema-instance" xsi:schemaLocation="http://www.topografix.com/GPX/1/1 http://www.topografix.com/GPX/1/1/gpx.xsd" version="1.1" creator="VisuGPX - https://www.visugpx.com">
  <metadata>
    <name>Mt cerisy 26km</name>
  </metadata>
  <trk>
    <name><![CDATA[Mt cerisy 26km_1]]></name>
    <trkseg>
      <trkpt lat="48.74744" lon="-0.57246">
        <ele>106.6</ele>
        <time>2013-09-13T15:10:02Z</time>
      </trkpt>
      <trkpt lat="48.74745" lon="-0.5724">
        <ele>106.4</ele>
        <time>2013-09-13T15:10:03Z</time>
      </trkpt>
      <trkpt lat="48.74762" lon="-0.57239">
        <ele>106.4</ele>
        <time>2013-09-13T15:10:32Z</time>
      </trkpt>
      <trkpt lat="48.74771" lon="-0.5725">
        <ele>106.4</ele>
        <time>2013-09-13T15:10:55Z</time>
      </trkpt>
      <trkpt lat="48.74772" lon="-0.57256">
        <ele>106.4</ele>
        <time>2013-09-13T15:11:06Z</time>
      </trkpt>
      <trkpt lat="48.74774" lon="-0.57257">
        <ele>106.4</ele>
        <time>2013-09-13T15:11:07Z</time>
      </trkpt>
      <trkpt lat="48.74781" lon="-0.57268">
        <ele>106.2</ele>
        <time>2013-09-13T15:11:11Z</time>
      </trkpt>
      <trkpt lat="48.74785" lon="-0.57271">
        <ele>106.2</ele>
        <time>2013-09-13T15:11:12Z</time>
      </trkpt>
      <trkpt lat="48.74847" lon="-0.57325">
        <ele>105.8</ele>
        <time>2013-09-13T15:11:28Z</time>
      </trkpt>
      <trkpt lat="48.74898" lon="-0.57383">
        <ele>105</ele>
        <time>2013-09-13T15:11:45Z</time>
      </trkpt>
      <trkpt lat="48.74901" lon="-0.57387">
        <ele>105</ele>
        <time>2013-09-13T15:11:46Z</time>
      </trkpt>
      <trkpt lat="48.74904" lon="-0.57391">
        <ele>105</ele>
        <time>2013-09-13T15:11:47Z</time>
      </trkpt>
      <trkpt lat="48.74922" lon="-0.57406">
        <ele>104.8</ele>
        <time>2013-09-13T15:11:52Z</time>
      </trkpt>
      <trkpt lat="48.74924" lon="-0.5741">
        <ele>104.8</ele>
        <time>2013-09-13T15:11:53Z</time>
      </trkpt>
      <trkpt lat="48.74927" lon="-0.57414">
        <ele>104.8</ele>
        <time>2013-09-13T15:11:54Z</time>
      </trkpt>
      <trkpt lat="48.74931" lon="-0.57417">
        <ele>104.6</ele>
        <time>2013-09-13T15:11:55Z</time>
      </trkpt>
      <trkpt lat="48.74934" lon="-0.57419">
        <ele>104.6</ele>
        <time>2013-09-13T15:11:56Z</time>
      </trkpt>
      <trkpt lat="48.74938" lon="-0.57422">
        <ele>104.6</ele>
        <time>2013-09-13T15:11:58Z</time>
      </trkpt>
      <trkpt lat="48.74939" lon="-0.57418">
        <ele>104.6</ele>
        <time>2013-09-13T15:11:59Z</time>
      </trkpt>
      <trkpt lat="48.74961" lon="-0.57364">
        <ele>104.6</ele>
        <time>2013-09-13T15:12:10Z</time>
      </trkpt>
      <trkpt lat="48.74962" lon="-0.57363">
        <ele>104.8</ele>
        <time>2013-09-13T15:12:13Z</time>
      </trkpt>
      <trkpt lat="48.74973" lon="-0.57364">
        <ele>104.8</ele>
        <time>2013-09-13T15:12:23Z</time>
      </trkpt>
      <trkpt lat="48.7501" lon="-0.57382">
        <ele>104.4</ele>
        <time>2013-09-13T15:12:35Z</time>
      </trkpt>
      <trkpt lat="48.75046" lon="-0.57422">
        <ele>104.6</ele>
        <time>2013-09-13T15:12:51Z</time>
      </trkpt>
      <trkpt lat="48.75048" lon="-0.57426">
        <ele>105.2</ele>
        <time>2013-09-13T15:12:55Z</time>
      </trkpt>
      <trkpt lat="48.75043" lon="-0.57408">
        <ele>105.2</ele>
        <time>2013-09-13T15:13:01Z</time>
      </trkpt>
      <trkpt lat="48.75042" lon="-0.57406">
        <ele>105</ele>
        <time>2013-09-13T15:13:02Z</time>
      </trkpt>
      <trkpt lat="48.75044" lon="-0.57415">
        <ele>104.6</ele>
        <time>2013-09-13T15:13:08Z</time>
      </trkpt>
      <trkpt lat="48.75043" lon="-0.57438">
        <ele>105.6</ele>
        <time>2013-09-13T15:13:17Z</time>
      </trkpt>
      <trkpt lat="48.75043" lon="-0.57443">
        <ele>105.6</ele>
        <time>2013-09-13T15:13:18Z</time>
      </trkpt>
      <trkpt lat="48.75049" lon="-0.57496">
        <ele>105.8</ele>
        <time>2013-09-13T15:13:31Z</time>
      </trkpt>
      <trkpt lat="48.75114" lon="-0.57514">
        <ele>104.6</ele>
        <time>2013-09-13T15:13:47Z</time>
      </trkpt>
      <trkpt lat="48.75154" lon="-0.57527">
        <ele>103.8</ele>
        <time>2013-09-13T15:13:58Z</time>
      </trkpt>
      <trkpt lat="48.75205" lon="-0.57545">
        <ele>103</ele>
        <time>2013-09-13T15:14:11Z</time>
      </trkpt>
      <trkpt lat="48.75218" lon="-0.57548">
        <ele>103.6</ele>
        <time>2013-09-13T15:14:21Z</time>
      </trkpt>
      <trkpt lat="48.75247" lon="-0.57566">
        <ele>103.2</ele>
        <time>2013-09-13T15:14:32Z</time>
      </trkpt>
      <trkpt lat="48.7526" lon="-0.57589">
        <ele>103</ele>
        <time>2013-09-13T15:14:38Z</time>
      </trkpt>
      <trkpt lat="48.75294" lon="-0.57613">
        <ele>102.6</ele>
        <time>2013-09-13T15:14:49Z</time>
      </trkpt>
      <trkpt lat="48.75306" lon="-0.57627">
        <ele>102.4</ele>
        <time>2013-09-13T15:14:53Z</time>
      </trkpt>
      <trkpt lat="48.75306" lon="-0.57632">
        <ele>102.2</ele>
        <time>2013-09-13T15:14:54Z</time>
      </trkpt>
      <trkpt lat="48.75305" lon="-0.57637">
        <ele>102</ele>
        <time>2013-09-13T15:14:55Z</time>
      </trkpt>
      <trkpt lat="48.75303" lon="-0.57642">
        <ele>102</ele>
        <time>2013-09-13T15:14:56Z</time>
      </trkpt>
      <trkpt lat="48.75301" lon="-0.57647">
        <ele>102</ele>
        <time>2013-09-13T15:14:57Z</time>
      </trkpt>
      <trkpt lat="48.75298" lon="-0.57715">
        <ele>102</ele>
        <time>2013-09-13T15:15:10Z</time>
      </trkpt>
      <trkpt lat="48.75303" lon="-0.57737">
        <ele>102.2</ele>
        <time>2013-09-13T15:15:14Z</time>
      </trkpt>
      <trkpt lat="48.75305" lon="-0.57743">
        <ele>102.2</ele>
        <time>2013-09-13T15:15:15Z</time>
      </trkpt>
      <trkpt lat="48.75307" lon="-0.57748">
        <ele>102</ele>
        <time>2013-09-13T15:15:16Z</time>
      </trkpt>
      <trkpt lat="48.75311" lon="-0.57752">
        <ele>102</ele>
        <time>2013-09-13T15:15:17Z</time>
      </trkpt>
      <trkpt lat="48.75315" lon="-0.57755">
        <ele>102</ele>
        <time>2013-09-13T15:15:18Z</time>
      </trkpt>
      <trkpt lat="48.75349" lon="-0.57783">
        <ele>101.8</ele>
        <time>2013-09-13T15:15:27Z</time>
      </trkpt>
      <trkpt lat="48.75352" lon="-0.57787">
        <ele>101.8</ele>
        <time>2013-09-13T15:15:28Z</time>
      </trkpt>
      <trkpt lat="48.75354" lon="-0.57792">
        <ele>101.8</ele>
        <time>2013-09-13T15:15:29Z</time>
      </trkpt>
      <trkpt lat="48.75356" lon="-0.57797">
        <ele>101.8</ele>
        <time>2013-09-13T15:15:30Z</time>
      </trkpt>
      <trkpt lat="48.75357" lon="-0.57802">
        <ele>101.8</ele>
        <time>2013-09-13T15:15:31Z</time>
      </trkpt>
      <trkpt lat="48.75356" lon="-0.57808">
        <ele>101.8</ele>
        <time>2013-09-13T15:15:32Z</time>
      </trkpt>
      <trkpt lat="48.75355" lon="-0.57813">
        <ele>101.8</ele>
        <time>2013-09-13T15:15:33Z</time>
      </trkpt>
      <trkpt lat="48.75354" lon="-0.57818">
        <ele>101.8</ele>
        <time>2013-09-13T15:15:34Z</time>
      </trkpt>
      <trkpt lat="48.75352" lon="-0.57823">
        <ele>101.8</ele>
        <time>2013-09-13T15:15:35Z</time>
      </trkpt>
      <trkpt lat="48.75351" lon="-0.57829">
        <ele>101.8</ele>
        <time>2013-09-13T15:15:36Z</time>
      </trkpt>
      <trkpt lat="48.75346" lon="-0.57858">
        <ele>102</ele>
        <time>2013-09-13T15:15:42Z</time>
      </trkpt>
      <trkpt lat="48.75346" lon="-0.57863">
        <ele>102</ele>
        <time>2013-09-13T15:15:43Z</time>
      </trkpt>
      <trkpt lat="48.75347" lon="-0.57867">
        <ele>102.2</ele>
        <time>2013-09-13T15:15:44Z</time>
      </trkpt>
      <trkpt lat="48.75346" lon="-0.57872">
        <ele>102.4</ele>
        <time>2013-09-13T15:15:45Z</time>
      </trkpt>
      <trkpt lat="48.75345" lon="-0.57876">
        <ele>102.4</ele>
        <time>2013-09-13T15:15:46Z</time>
      </trkpt>
      <trkpt lat="48.75344" lon="-0.57881">
        <ele>102.6</ele>
        <time>2013-09-13T15:15:47Z</time>
      </trkpt>
      <trkpt lat="48.75342" lon="-0.57886">
        <ele>103</ele>
        <time>2013-09-13T15:15:48Z</time>
      </trkpt>
      <trkpt lat="48.7534" lon="-0.5789">
        <ele>103.2</ele>
        <time>2013-09-13T15:15:49Z</time>
      </trkpt>
      <trkpt lat="48.75338" lon="-0.57894">
        <ele>103.4</ele>
        <time>2013-09-13T15:15:50Z</time>
      </trkpt>
      <trkpt lat="48.75338" lon="-0.57897">
        <ele>103.8</ele>
        <time>2013-09-13T15:15:51Z</time>
      </trkpt>
      <trkpt lat="48.75338" lon="-0.579">
        <ele>104</ele>
        <time>2013-09-13T15:15:52Z</time>
      </trkpt>
      <trkpt lat="48.75339" lon="-0.57902">
        <ele>104.4</ele>
        <time>2013-09-13T15:15:53Z</time>
      </trkpt>
      <trkpt lat="48.75342" lon="-0.57905">
        <ele>104.8</ele>
        <time>2013-09-13T15:15:54Z</time>
      </trkpt>
      <trkpt lat="48.75345" lon="-0.57907">
        <ele>105.2</ele>
        <time>2013-09-13T15:15:55Z</time>
      </trkpt>
      <trkpt lat="48.75381" lon="-0.5794">
        <ele>105.8</ele>
        <time>2013-09-13T15:16:06Z</time>
      </trkpt>
      <trkpt lat="48.75384" lon="-0.57945">
        <ele>105.8</ele>
        <time>2013-09-13T15:16:07Z</time>
      </trkpt>
      <trkpt lat="48.75387" lon="-0.57951">
        <ele>105.6</ele>
        <time>2013-09-13T15:16:08Z</time>
      </trkpt>
      <trkpt lat="48.75436" lon="-0.58031">
        <ele>104.6</ele>
        <time>2013-09-13T15:16:23Z</time>
      </trkpt>
      <trkpt lat="48.75467" lon="-0.58065">
        <ele>103.8</ele>
        <time>2013-09-13T15:16:31Z</time>
      </trkpt>
      <trkpt lat="48.75467" lon="-0.58068">
        <ele>103.6</ele>
        <time>2013-09-13T15:16:32Z</time>
      </trkpt>
      <trkpt lat="48.75467" lon="-0.5807">
        <ele>103.6</ele>
        <time>2013-09-13T15:16:33Z</time>
      </trkpt>
      <trkpt lat="48.75447" lon="-0.58076">
        <ele>103.2</ele>
        <time>2013-09-13T15:16:39Z</time>
      </trkpt>
      <trkpt lat="48.75438" lon="-0.5809">
        <ele>104.4</ele>
        <time>2013-09-13T15:16:45Z</time>
      </trkpt>
      <trkpt lat="48.75417" lon="-0.58112">
        <ele>107.4</ele>
        <time>2013-09-13T15:16:57Z</time>
      </trkpt>
      <trkpt lat="48.75386" lon="-0.58149">
        <ele>110.4</ele>
        <time>2013-09-13T15:17:11Z</time>
      </trkpt>
      <trkpt lat="48.75379" lon="-0.58157">
        <ele>110.6</ele>
        <time>2013-09-13T15:17:14Z</time>
      </trkpt>
      <trkpt lat="48.75379" lon="-0.5817">
        <ele>111.2</ele>
        <time>2013-09-13T15:17:18Z</time>
      </trkpt>
      <trkpt lat="48.7538" lon="-0.58173">
        <ele>111.2</ele>
        <time>2013-09-13T15:17:19Z</time>
      </trkpt>
      <trkpt lat="48.75395" lon="-0.58208">
        <ele>112.2</ele>
        <time>2013-09-13T15:17:31Z</time>
      </trkpt>
      <trkpt lat="48.75418" lon="-0.58245">
        <ele>113</ele>
        <time>2013-09-13T15:17:45Z</time>
      </trkpt>
      <trkpt lat="48.75443" lon="-0.58294">
        <ele>113.4</ele>
        <time>2013-09-13T15:17:58Z</time>
      </trkpt>
      <trkpt lat="48.75476" lon="-0.58355">
        <ele>113.2</ele>
        <time>2013-09-13T15:18:11Z</time>
      </trkpt>
      <trkpt lat="48.75504" lon="-0.58407">
        <ele>112.4</ele>
        <time>2013-09-13T15:18:22Z</time>
      </trkpt>
      <trkpt lat="48.7552" lon="-0.5843">
        <ele>111.8</ele>
        <time>2013-09-13T15:18:27Z</time>
      </trkpt>
      <trkpt lat="48.75562" lon="-0.58475">
        <ele>110</ele>
        <time>2013-09-13T15:18:37Z</time>
      </trkpt>
      <trkpt lat="48.75574" lon="-0.5849">
        <ele>109.4</ele>
        <time>2013-09-13T15:18:40Z</time>
      </trkpt>
      <trkpt lat="48.75578" lon="-0.58494">
        <ele>109.2</ele>
        <time>2013-09-13T15:18:41Z</time>
      </trkpt>
      <trkpt lat="48.75583" lon="-0.58496">
        <ele>109.2</ele>
        <time>2013-09-13T15:18:42Z</time>
      </trkpt>
      <trkpt lat="48.75588" lon="-0.58497">
        <ele>109</ele>
        <time>2013-09-13T15:18:43Z</time>
      </trkpt>
      <trkpt lat="48.75593" lon="-0.58498">
        <ele>108.8</ele>
        <time>2013-09-13T15:18:44Z</time>
      </trkpt>
      <trkpt lat="48.75604" lon="-0.58499">
        <ele>108.6</ele>
        <time>2013-09-13T15:18:46Z</time>
      </trkpt>
      <trkpt lat="48.75661" lon="-0.58517">
        <ele>105.6</ele>
        <time>2013-09-13T15:18:55Z</time>
      </trkpt>
      <trkpt lat="48.75677" lon="-0.5852">
        <ele>104.4</ele>
        <time>2013-09-13T15:19:00Z</time>
      </trkpt>
      <trkpt lat="48.75679" lon="-0.58522">
        <ele>104.2</ele>
        <time>2013-09-13T15:19:01Z</time>
      </trkpt>
      <trkpt lat="48.75681" lon="-0.58523">
        <ele>104.2</ele>
        <time>2013-09-13T15:19:02Z</time>
      </trkpt>
      <trkpt lat="48.75719" lon="-0.58548">
        <ele>105.2</ele>
        <time>2013-09-13T15:19:15Z</time>
      </trkpt>
      <trkpt lat="48.75764" lon="-0.58562">
        <ele>108.4</ele>
        <time>2013-09-13T15:19:28Z</time>
      </trkpt>
      <trkpt lat="48.75825" lon="-0.58584">
        <ele>109</ele>
        <time>2013-09-13T15:19:44Z</time>
      </trkpt>
      <trkpt lat="48.75843" lon="-0.58591">
        <ele>109.2</ele>
        <time>2013-09-13T15:19:54Z</time>
      </trkpt>
      <trkpt lat="48.75877" lon="-0.58601">
        <ele>109.8</ele>
        <time>2013-09-13T15:20:07Z</time>
      </trkpt>
      <trkpt lat="48.75933" lon="-0.58618">
        <ele>110.4</ele>
        <time>2013-09-13T15:20:20Z</time>
      </trkpt>
      <trkpt lat="48.75998" lon="-0.58635">
        <ele>112</ele>
        <time>2013-09-13T15:20:36Z</time>
      </trkpt>
      <trkpt lat="48.76035" lon="-0.58643">
        <ele>112.6</ele>
        <time>2013-09-13T15:20:44Z</time>
      </trkpt>
      <trkpt lat="48.7607" lon="-0.5866">
        <ele>113.2</ele>
        <time>2013-09-13T15:20:53Z</time>
      </trkpt>
      <trkpt lat="48.76072" lon="-0.58664">
        <ele>113.2</ele>
        <time>2013-09-13T15:20:54Z</time>
      </trkpt>
      <trkpt lat="48.76072" lon="-0.58675">
        <ele>113.4</ele>
        <time>2013-09-13T15:20:56Z</time>
      </trkpt>
      <trkpt lat="48.76071" lon="-0.5868">
        <ele>113.4</ele>
        <time>2013-09-13T15:20:57Z</time>
      </trkpt>
      <trkpt lat="48.7607" lon="-0.58686">
        <ele>113.6</ele>
        <time>2013-09-13T15:20:58Z</time>
      </trkpt>
      <trkpt lat="48.76057" lon="-0.58746">
        <ele>113.6</ele>
        <time>2013-09-13T15:21:08Z</time>
      </trkpt>
      <trkpt lat="48.76055" lon="-0.58752">
        <ele>113.6</ele>
        <time>2013-09-13T15:21:09Z</time>
      </trkpt>
      <trkpt lat="48.76052" lon="-0.58757">
        <ele>113.6</ele>
        <time>2013-09-13T15:21:10Z</time>
      </trkpt>
      <trkpt lat="48.76049" lon="-0.58761">
        <ele>113.6</ele>
        <time>2013-09-13T15:21:11Z</time>
      </trkpt>
      <trkpt lat="48.76045" lon="-0.58766">
        <ele>113.6</ele>
        <time>2013-09-13T15:21:12Z</time>
      </trkpt>
      <trkpt lat="48.75998" lon="-0.58819">
        <ele>113.6</ele>
        <time>2013-09-13T15:21:25Z</time>
      </trkpt>
      <trkpt lat="48.75978" lon="-0.58838">
        <ele>113.8</ele>
        <time>2013-09-13T15:21:30Z</time>
      </trkpt>
      <trkpt lat="48.75975" lon="-0.58844">
        <ele>113.8</ele>
        <time>2013-09-13T15:21:31Z</time>
      </trkpt>
      <trkpt lat="48.75972" lon="-0.5885">
        <ele>113.8</ele>
        <time>2013-09-13T15:21:32Z</time>
      </trkpt>
      <trkpt lat="48.75972" lon="-0.58857">
        <ele>113.8</ele>
        <time>2013-09-13T15:21:33Z</time>
      </trkpt>
      <trkpt lat="48.75973" lon="-0.58864">
        <ele>113.8</ele>
        <time>2013-09-13T15:21:34Z</time>
      </trkpt>
      <trkpt lat="48.75975" lon="-0.58871">
        <ele>113.8</ele>
        <time>2013-09-13T15:21:35Z</time>
      </trkpt>
      <trkpt lat="48.75978" lon="-0.58877">
        <ele>113.6</ele>
        <time>2013-09-13T15:21:36Z</time>
      </trkpt>
      <trkpt lat="48.75992" lon="-0.58904">
        <ele>113</ele>
        <time>2013-09-13T15:21:40Z</time>
      </trkpt>
      <trkpt lat="48.75994" lon="-0.58912">
        <ele>112.8</ele>
        <time>2013-09-13T15:21:41Z</time>
      </trkpt>
      <trkpt lat="48.75996" lon="-0.5892">
        <ele>112.6</ele>
        <time>2013-09-13T15:21:42Z</time>
      </trkpt>
      <trkpt lat="48.75996" lon="-0.58928">
        <ele>112.4</ele>
        <time>2013-09-13T15:21:43Z</time>
      </trkpt>
      <trkpt lat="48.75995" lon="-0.58936">
        <ele>112</ele>
        <time>2013-09-13T15:21:44Z</time>
      </trkpt>
      <trkpt lat="48.75992" lon="-0.58943">
        <ele>111.8</ele>
        <time>2013-09-13T15:21:45Z</time>
      </trkpt>
      <trkpt lat="48.7599" lon="-0.5895">
        <ele>111.8</ele>
        <time>2013-09-13T15:21:46Z</time>
      </trkpt>
      <trkpt lat="48.75987" lon="-0.58956">
        <ele>111.8</ele>
        <time>2013-09-13T15:21:47Z</time>
      </trkpt>
      <trkpt lat="48.75928" lon="-0.59044">
        <ele>113</ele>
        <time>2013-09-13T15:22:04Z</time>
      </trkpt>
      <trkpt lat="48.75926" lon="-0.5905">
        <ele>113.2</ele>
        <time>2013-09-13T15:22:05Z</time>
      </trkpt>
      <trkpt lat="48.75926" lon="-0.59055">
        <ele>113.4</ele>
        <time>2013-09-13T15:22:06Z</time>
      </trkpt>
      <trkpt lat="48.75928" lon="-0.5906">
        <ele>113.6</ele>
        <time>2013-09-13T15:22:07Z</time>
      </trkpt>
      <trkpt lat="48.7593" lon="-0.59066">
        <ele>113.6</ele>
        <time>2013-09-13T15:22:08Z</time>
      </trkpt>
      <trkpt lat="48.75933" lon="-0.59071">
        <ele>113.8</ele>
        <time>2013-09-13T15:22:09Z</time>
      </trkpt>
      <trkpt lat="48.75992" lon="-0.59166">
        <ele>113.6</ele>
        <time>2013-09-13T15:22:27Z</time>
      </trkpt>
      <trkpt lat="48.76011" lon="-0.59195">
        <ele>113.8</ele>
        <time>2013-09-13T15:22:33Z</time>
      </trkpt>
      <trkpt lat="48.76012" lon="-0.592">
        <ele>114</ele>
        <time>2013-09-13T15:22:34Z</time>
      </trkpt>
      <trkpt lat="48.76012" lon="-0.59205">
        <ele>114</ele>
        <time>2013-09-13T15:22:35Z</time>
      </trkpt>
      <trkpt lat="48.76011" lon="-0.59208">
        <ele>114</ele>
        <time>2013-09-13T15:22:36Z</time>
      </trkpt>
      <trkpt lat="48.76011" lon="-0.5921">
        <ele>114.2</ele>
        <time>2013-09-13T15:22:37Z</time>
      </trkpt>
      <trkpt lat="48.76012" lon="-0.59213">
        <ele>114.2</ele>
        <time>2013-09-13T15:22:38Z</time>
      </trkpt>
      <trkpt lat="48.76013" lon="-0.59215">
        <ele>114.2</ele>
        <time>2013-09-13T15:22:39Z</time>
      </trkpt>
      <trkpt lat="48.7603" lon="-0.5925">
        <ele>114.8</ele>
        <time>2013-09-13T15:22:47Z</time>
      </trkpt>
      <trkpt lat="48.76038" lon="-0.59265">
        <ele>115.4</ele>
        <time>2013-09-13T15:22:50Z</time>
      </trkpt>
      <trkpt lat="48.76084" lon="-0.5937">
        <ele>118</ele>
        <time>2013-09-13T15:23:08Z</time>
      </trkpt>
      <trkpt lat="48.76129" lon="-0.59464">
        <ele>118.8</ele>
        <time>2013-09-13T15:23:24Z</time>
      </trkpt>
      <trkpt lat="48.76171" lon="-0.59582">
        <ele>117</ele>
        <time>2013-09-13T15:23:40Z</time>
      </trkpt>
      <trkpt lat="48.76221" lon="-0.59691">
        <ele>116.4</ele>
        <time>2013-09-13T15:23:57Z</time>
      </trkpt>
      <trkpt lat="48.76227" lon="-0.59699">
        <ele>116.8</ele>
        <time>2013-09-13T15:23:59Z</time>
      </trkpt>
      <trkpt lat="48.76248" lon="-0.5973">
        <ele>119.8</ele>
        <time>2013-09-13T15:24:08Z</time>
      </trkpt>
      <trkpt lat="48.7625" lon="-0.59731">
        <ele>120</ele>
        <time>2013-09-13T15:24:09Z</time>
      </trkpt>
      <trkpt lat="48.76251" lon="-0.59731">
        <ele>120.2</ele>
        <time>2013-09-13T15:24:10Z</time>
      </trkpt>
      <trkpt lat="48.76252" lon="-0.59733">
        <ele>120.4</ele>
        <time>2013-09-13T15:24:11Z</time>
      </trkpt>
      <trkpt lat="48.76253" lon="-0.59735">
        <ele>120.8</ele>
        <time>2013-09-13T15:24:12Z</time>
      </trkpt>
      <trkpt lat="48.76253" lon="-0.59738">
        <ele>121</ele>
        <time>2013-09-13T15:24:13Z</time>
      </trkpt>
      <trkpt lat="48.76262" lon="-0.59769">
        <ele>123</ele>
        <time>2013-09-13T15:24:21Z</time>
      </trkpt>
      <trkpt lat="48.76263" lon="-0.5977">
        <ele>123.2</ele>
        <time>2013-09-13T15:24:22Z</time>
      </trkpt>
      <trkpt lat="48.76281" lon="-0.59808">
        <ele>124.8</ele>
        <time>2013-09-13T15:24:33Z</time>
      </trkpt>
      <trkpt lat="48.76285" lon="-0.59865">
        <ele>127</ele>
        <time>2013-09-13T15:24:46Z</time>
      </trkpt>
      <trkpt lat="48.76272" lon="-0.59985">
        <ele>128.6</ele>
        <time>2013-09-13T15:25:07Z</time>
      </trkpt>
      <trkpt lat="48.76266" lon="-0.60046">
        <ele>127.8</ele>
        <time>2013-09-13T15:25:15Z</time>
      </trkpt>
      <trkpt lat="48.76258" lon="-0.60106">
        <ele>126</ele>
        <time>2013-09-13T15:25:21Z</time>
      </trkpt>
      <trkpt lat="48.76248" lon="-0.60197">
        <ele>122.6</ele>
        <time>2013-09-13T15:25:28Z</time>
      </trkpt>
      <trkpt lat="48.76241" lon="-0.60256">
        <ele>120</ele>
        <time>2013-09-13T15:25:32Z</time>
      </trkpt>
      <trkpt lat="48.76241" lon="-0.60272">
        <ele>118.6</ele>
        <time>2013-09-13T15:25:33Z</time>
      </trkpt>
      <trkpt lat="48.76242" lon="-0.60287">
        <ele>118.6</ele>
        <time>2013-09-13T15:25:34Z</time>
      </trkpt>
      <trkpt lat="48.76243" lon="-0.60303">
        <ele>118</ele>
        <time>2013-09-13T15:25:35Z</time>
      </trkpt>
      <trkpt lat="48.76245" lon="-0.60318">
        <ele>116.6</ele>
        <time>2013-09-13T15:25:36Z</time>
      </trkpt>
      <trkpt lat="48.76248" lon="-0.60333">
        <ele>115.8</ele>
        <time>2013-09-13T15:25:37Z</time>
      </trkpt>
      <trkpt lat="48.76252" lon="-0.60347">
        <ele>115.2</ele>
        <time>2013-09-13T15:25:38Z</time>
      </trkpt>
      <trkpt lat="48.76257" lon="-0.60361">
        <ele>114.4</ele>
        <time>2013-09-13T15:25:39Z</time>
      </trkpt>
      <trkpt lat="48.76264" lon="-0.60373">
        <ele>113.8</ele>
        <time>2013-09-13T15:25:40Z</time>
      </trkpt>
      <trkpt lat="48.76273" lon="-0.60383">
        <ele>113</ele>
        <time>2013-09-13T15:25:41Z</time>
      </trkpt>
      <trkpt lat="48.76281" lon="-0.6039">
        <ele>112.4</ele>
        <time>2013-09-13T15:25:42Z</time>
      </trkpt>
      <trkpt lat="48.7629" lon="-0.60395">
        <ele>112</ele>
        <time>2013-09-13T15:25:43Z</time>
      </trkpt>
      <trkpt lat="48.7634" lon="-0.60429">
        <ele>108.8</ele>
        <time>2013-09-13T15:25:49Z</time>
      </trkpt>
      <trkpt lat="48.764" lon="-0.60498">
        <ele>107.4</ele>
        <time>2013-09-13T15:26:00Z</time>
      </trkpt>
      <trkpt lat="48.76404" lon="-0.60502">
        <ele>107.6</ele>
        <time>2013-09-13T15:26:01Z</time>
      </trkpt>
      <trkpt lat="48.76409" lon="-0.60506">
        <ele>107.8</ele>
        <time>2013-09-13T15:26:02Z</time>
      </trkpt>
      <trkpt lat="48.76414" lon="-0.6051">
        <ele>108</ele>
        <time>2013-09-13T15:26:03Z</time>
      </trkpt>
      <trkpt lat="48.76437" lon="-0.60521">
        <ele>109.8</ele>
        <time>2013-09-13T15:26:08Z</time>
      </trkpt>
      <trkpt lat="48.76474" lon="-0.60527">
        <ele>112.2</ele>
        <time>2013-09-13T15:26:15Z</time>
      </trkpt>
      <trkpt lat="48.76479" lon="-0.60531">
        <ele>112.4</ele>
        <time>2013-09-13T15:26:16Z</time>
      </trkpt>
      <trkpt lat="48.76519" lon="-0.60578">
        <ele>113.4</ele>
        <time>2013-09-13T15:26:25Z</time>
      </trkpt>
      <trkpt lat="48.76565" lon="-0.60627">
        <ele>113</ele>
        <time>2013-09-13T15:26:34Z</time>
      </trkpt>
      <trkpt lat="48.76588" lon="-0.6064">
        <ele>113</ele>
        <time>2013-09-13T15:26:38Z</time>
      </trkpt>
      <trkpt lat="48.76679" lon="-0.60662">
        <ele>113.8</ele>
        <time>2013-09-13T15:26:54Z</time>
      </trkpt>
      <trkpt lat="48.76731" lon="-0.60673">
        <ele>115.4</ele>
        <time>2013-09-13T15:27:08Z</time>
      </trkpt>
      <trkpt lat="48.76744" lon="-0.60675">
        <ele>116.4</ele>
        <time>2013-09-13T15:27:25Z</time>
      </trkpt>
      <trkpt lat="48.76749" lon="-0.60675">
        <ele>116.4</ele>
        <time>2013-09-13T15:27:35Z</time>
      </trkpt>
      <trkpt lat="48.76786" lon="-0.60683">
        <ele>117</ele>
        <time>2013-09-13T15:27:46Z</time>
      </trkpt>
      <trkpt lat="48.76858" lon="-0.607">
        <ele>119.2</ele>
        <time>2013-09-13T15:28:04Z</time>
      </trkpt>
      <trkpt lat="48.76869" lon="-0.60714">
        <ele>119.8</ele>
        <time>2013-09-13T15:28:09Z</time>
      </trkpt>
      <trkpt lat="48.76869" lon="-0.60719">
        <ele>119.8</ele>
        <time>2013-09-13T15:28:10Z</time>
      </trkpt>
      <trkpt lat="48.76869" lon="-0.60725">
        <ele>120</ele>
        <time>2013-09-13T15:28:11Z</time>
      </trkpt>
      <trkpt lat="48.76868" lon="-0.60731">
        <ele>120</ele>
        <time>2013-09-13T15:28:12Z</time>
      </trkpt>
      <trkpt lat="48.76868" lon="-0.60737">
        <ele>120.2</ele>
        <time>2013-09-13T15:28:13Z</time>
      </trkpt>
      <trkpt lat="48.76863" lon="-0.6081">
        <ele>121</ele>
        <time>2013-09-13T15:28:24Z</time>
      </trkpt>
      <trkpt lat="48.76862" lon="-0.60817">
        <ele>121</ele>
        <time>2013-09-13T15:28:25Z</time>
      </trkpt>
      <trkpt lat="48.7686" lon="-0.60864">
        <ele>121.8</ele>
        <time>2013-09-13T15:28:32Z</time>
      </trkpt>
      <trkpt lat="48.76859" lon="-0.60871">
        <ele>122</ele>
        <time>2013-09-13T15:28:33Z</time>
      </trkpt>
      <trkpt lat="48.76859" lon="-0.60877">
        <ele>122</ele>
        <time>2013-09-13T15:28:34Z</time>
      </trkpt>
      <trkpt lat="48.76858" lon="-0.60896">
        <ele>122.6</ele>
        <time>2013-09-13T15:28:37Z</time>
      </trkpt>
      <trkpt lat="48.76857" lon="-0.60933">
        <ele>123.4</ele>
        <time>2013-09-13T15:28:43Z</time>
      </trkpt>
      <trkpt lat="48.76856" lon="-0.60959">
        <ele>123.8</ele>
        <time>2013-09-13T15:28:47Z</time>
      </trkpt>
      <trkpt lat="48.76856" lon="-0.60965">
        <ele>123.8</ele>
        <time>2013-09-13T15:28:48Z</time>
      </trkpt>
      <trkpt lat="48.76852" lon="-0.61045">
        <ele>126.2</ele>
        <time>2013-09-13T15:29:02Z</time>
      </trkpt>
      <trkpt lat="48.76843" lon="-0.61115">
        <ele>128.6</ele>
        <time>2013-09-13T15:29:16Z</time>
      </trkpt>
      <trkpt lat="48.76836" lon="-0.61179">
        <ele>131</ele>
        <time>2013-09-13T15:29:29Z</time>
      </trkpt>
      <trkpt lat="48.76835" lon="-0.61185">
        <ele>131.2</ele>
        <time>2013-09-13T15:29:30Z</time>
      </trkpt>
      <trkpt lat="48.76823" lon="-0.61257">
        <ele>132.6</ele>
        <time>2013-09-13T15:29:44Z</time>
      </trkpt>
      <trkpt lat="48.76803" lon="-0.61326">
        <ele>133.6</ele>
        <time>2013-09-13T15:29:59Z</time>
      </trkpt>
      <trkpt lat="48.76787" lon="-0.61388">
        <ele>134.8</ele>
        <time>2013-09-13T15:30:13Z</time>
      </trkpt>
      <trkpt lat="48.76768" lon="-0.61453">
        <ele>135.4</ele>
        <time>2013-09-13T15:30:26Z</time>
      </trkpt>
      <trkpt lat="48.76746" lon="-0.61522">
        <ele>134.8</ele>
        <time>2013-09-13T15:30:39Z</time>
      </trkpt>
      <trkpt lat="48.76742" lon="-0.61534">
        <ele>134.6</ele>
        <time>2013-09-13T15:30:41Z</time>
      </trkpt>
      <trkpt lat="48.76726" lon="-0.61579">
        <ele>134</ele>
        <time>2013-09-13T15:30:49Z</time>
      </trkpt>
      <trkpt lat="48.76717" lon="-0.61602">
        <ele>133.8</ele>
        <time>2013-09-13T15:30:53Z</time>
      </trkpt>
      <trkpt lat="48.76692" lon="-0.61687">
        <ele>133.2</ele>
        <time>2013-09-13T15:31:07Z</time>
      </trkpt>
      <trkpt lat="48.7667" lon="-0.61762">
        <ele>133</ele>
        <time>2013-09-13T15:31:20Z</time>
      </trkpt>
      <trkpt lat="48.76668" lon="-0.61768">
        <ele>133</ele>
        <time>2013-09-13T15:31:21Z</time>
      </trkpt>
      <trkpt lat="48.76659" lon="-0.61813">
        <ele>133</ele>
        <time>2013-09-13T15:31:30Z</time>
      </trkpt>
      <trkpt lat="48.76691" lon="-0.61848">
        <ele>134.2</ele>
        <time>2013-09-13T15:31:44Z</time>
      </trkpt>
      <trkpt lat="48.76716" lon="-0.61844">
        <ele>134.4</ele>
        <time>2013-09-13T15:31:53Z</time>
      </trkpt>
      <trkpt lat="48.7676" lon="-0.61834">
        <ele>134.6</ele>
        <time>2013-09-13T15:32:05Z</time>
      </trkpt>
      <trkpt lat="48.76817" lon="-0.6184">
        <ele>134.2</ele>
        <time>2013-09-13T15:32:18Z</time>
      </trkpt>
      <trkpt lat="48.76839" lon="-0.61846">
        <ele>134</ele>
        <time>2013-09-13T15:32:22Z</time>
      </trkpt>
      <trkpt lat="48.7685" lon="-0.61849">
        <ele>134</ele>
        <time>2013-09-13T15:32:24Z</time>
      </trkpt>
      <trkpt lat="48.76913" lon="-0.61869">
        <ele>133.4</ele>
        <time>2013-09-13T15:32:38Z</time>
      </trkpt>
      <trkpt lat="48.76955" lon="-0.61894">
        <ele>131.2</ele>
        <time>2013-09-13T15:32:48Z</time>
      </trkpt>
      <trkpt lat="48.76966" lon="-0.61897">
        <ele>130.4</ele>
        <time>2013-09-13T15:32:50Z</time>
      </trkpt>
      <trkpt lat="48.77035" lon="-0.61905">
        <ele>127</ele>
        <time>2013-09-13T15:33:01Z</time>
      </trkpt>
      <trkpt lat="48.77087" lon="-0.61903">
        <ele>124.6</ele>
        <time>2013-09-13T15:33:10Z</time>
      </trkpt>
      <trkpt lat="48.77165" lon="-0.61902">
        <ele>122.6</ele>
        <time>2013-09-13T15:33:25Z</time>
      </trkpt>
      <trkpt lat="48.77222" lon="-0.61902">
        <ele>120.2</ele>
        <time>2013-09-13T15:33:37Z</time>
      </trkpt>
      <trkpt lat="48.77288" lon="-0.61886">
        <ele>118.6</ele>
        <time>2013-09-13T15:33:52Z</time>
      </trkpt>
      <trkpt lat="48.77311" lon="-0.61877">
        <ele>118</ele>
        <time>2013-09-13T15:33:57Z</time>
      </trkpt>
      <trkpt lat="48.77334" lon="-0.61865">
        <ele>117.6</ele>
        <time>2013-09-13T15:34:02Z</time>
      </trkpt>
      <trkpt lat="48.77344" lon="-0.61862">
        <ele>117.4</ele>
        <time>2013-09-13T15:34:04Z</time>
      </trkpt>
      <trkpt lat="48.77417" lon="-0.61814">
        <ele>115.8</ele>
        <time>2013-09-13T15:34:21Z</time>
      </trkpt>
      <trkpt lat="48.77436" lon="-0.618">
        <ele>115.6</ele>
        <time>2013-09-13T15:34:26Z</time>
      </trkpt>
      <trkpt lat="48.7749" lon="-0.61749">
        <ele>114.8</ele>
        <time>2013-09-13T15:34:41Z</time>
      </trkpt>
      <trkpt lat="48.77543" lon="-0.61703">
        <ele>113.4</ele>
        <time>2013-09-13T15:34:55Z</time>
      </trkpt>
      <trkpt lat="48.77594" lon="-0.61654">
        <ele>112.6</ele>
        <time>2013-09-13T15:35:10Z</time>
      </trkpt>
      <trkpt lat="48.77598" lon="-0.61653">
        <ele>112.6</ele>
        <time>2013-09-13T15:35:11Z</time>
      </trkpt>
      <trkpt lat="48.77666" lon="-0.61633">
        <ele>109.6</ele>
        <time>2013-09-13T15:35:24Z</time>
      </trkpt>
      <trkpt lat="48.77722" lon="-0.61619">
        <ele>106.2</ele>
        <time>2013-09-13T15:35:32Z</time>
      </trkpt>
      <trkpt lat="48.77764" lon="-0.61611">
        <ele>103</ele>
        <time>2013-09-13T15:35:40Z</time>
      </trkpt>
      <trkpt lat="48.77787" lon="-0.61622">
        <ele>101</ele>
        <time>2013-09-13T15:35:48Z</time>
      </trkpt>
      <trkpt lat="48.77791" lon="-0.61627">
        <ele>100.8</ele>
        <time>2013-09-13T15:35:49Z</time>
      </trkpt>
      <trkpt lat="48.77841" lon="-0.61683">
        <ele>97.6</ele>
        <time>2013-09-13T15:35:58Z</time>
      </trkpt>
      <trkpt lat="48.77882" lon="-0.61733">
        <ele>94.4</ele>
        <time>2013-09-13T15:36:04Z</time>
      </trkpt>
      <trkpt lat="48.7789" lon="-0.61741">
        <ele>94</ele>
        <time>2013-09-13T15:36:05Z</time>
      </trkpt>
      <trkpt lat="48.77899" lon="-0.61747">
        <ele>93.4</ele>
        <time>2013-09-13T15:36:06Z</time>
      </trkpt>
      <trkpt lat="48.77909" lon="-0.61752">
        <ele>92.6</ele>
        <time>2013-09-13T15:36:07Z</time>
      </trkpt>
      <trkpt lat="48.77919" lon="-0.61754">
        <ele>92</ele>
        <time>2013-09-13T15:36:08Z</time>
      </trkpt>
      <trkpt lat="48.77929" lon="-0.61755">
        <ele>91.2</ele>
        <time>2013-09-13T15:36:09Z</time>
      </trkpt>
      <trkpt lat="48.77939" lon="-0.61754">
        <ele>90.4</ele>
        <time>2013-09-13T15:36:10Z</time>
      </trkpt>
      <trkpt lat="48.77987" lon="-0.61753">
        <ele>86.8</ele>
        <time>2013-09-13T15:36:15Z</time>
      </trkpt>
      <trkpt lat="48.77997" lon="-0.6175">
        <ele>86.2</ele>
        <time>2013-09-13T15:36:16Z</time>
      </trkpt>
      <trkpt lat="48.78007" lon="-0.61746">
        <ele>85.8</ele>
        <time>2013-09-13T15:36:17Z</time>
      </trkpt>
      <trkpt lat="48.78016" lon="-0.61739">
        <ele>85.2</ele>
        <time>2013-09-13T15:36:18Z</time>
      </trkpt>
      <trkpt lat="48.78025" lon="-0.61729">
        <ele>84.4</ele>
        <time>2013-09-13T15:36:19Z</time>
      </trkpt>
      <trkpt lat="48.78031" lon="-0.61718">
        <ele>83.8</ele>
        <time>2013-09-13T15:36:20Z</time>
      </trkpt>
      <trkpt lat="48.78037" lon="-0.61705">
        <ele>83.2</ele>
        <time>2013-09-13T15:36:21Z</time>
      </trkpt>
      <trkpt lat="48.78041" lon="-0.61691">
        <ele>82.8</ele>
        <time>2013-09-13T15:36:22Z</time>
      </trkpt>
      <trkpt lat="48.78045" lon="-0.61677">
        <ele>82.2</ele>
        <time>2013-09-13T15:36:23Z</time>
      </trkpt>
      <trkpt lat="48.78062" lon="-0.6162">
        <ele>79.6</ele>
        <time>2013-09-13T15:36:27Z</time>
      </trkpt>
      <trkpt lat="48.78068" lon="-0.61608">
        <ele>79</ele>
        <time>2013-09-13T15:36:28Z</time>
      </trkpt>
      <trkpt lat="48.78075" lon="-0.61598">
        <ele>78.6</ele>
        <time>2013-09-13T15:36:29Z</time>
      </trkpt>
      <trkpt lat="48.78084" lon="-0.61589">
        <ele>77.4</ele>
        <time>2013-09-13T15:36:30Z</time>
      </trkpt>
      <trkpt lat="48.78093" lon="-0.61581">
        <ele>76.6</ele>
        <time>2013-09-13T15:36:31Z</time>
      </trkpt>
      <trkpt lat="48.78102" lon="-0.61575">
        <ele>76</ele>
        <time>2013-09-13T15:36:32Z</time>
      </trkpt>
      <trkpt lat="48.78112" lon="-0.6157">
        <ele>75.2</ele>
        <time>2013-09-13T15:36:33Z</time>
      </trkpt>
      <trkpt lat="48.78123" lon="-0.61566">
        <ele>74.6</ele>
        <time>2013-09-13T15:36:34Z</time>
      </trkpt>
      <trkpt lat="48.78164" lon="-0.61551">
        <ele>71.2</ele>
        <time>2013-09-13T15:36:38Z</time>
      </trkpt>
      <trkpt lat="48.78187" lon="-0.61544">
        <ele>68.8</ele>
        <time>2013-09-13T15:36:41Z</time>
      </trkpt>
      <trkpt lat="48.78192" lon="-0.61545">
        <ele>67.8</ele>
        <time>2013-09-13T15:36:42Z</time>
      </trkpt>
      <trkpt lat="48.78196" lon="-0.61548">
        <ele>67</ele>
        <time>2013-09-13T15:36:43Z</time>
      </trkpt>
      <trkpt lat="48.78198" lon="-0.61554">
        <ele>66.4</ele>
        <time>2013-09-13T15:36:44Z</time>
      </trkpt>
      <trkpt lat="48.78199" lon="-0.61561">
        <ele>65.6</ele>
        <time>2013-09-13T15:36:45Z</time>
      </trkpt>
      <trkpt lat="48.78199" lon="-0.61569">
        <ele>65.2</ele>
        <time>2013-09-13T15:36:46Z</time>
      </trkpt>
      <trkpt lat="48.782" lon="-0.61583">
        <ele>64.2</ele>
        <time>2013-09-13T15:36:48Z</time>
      </trkpt>
      <trkpt lat="48.78205" lon="-0.61621">
        <ele>63.2</ele>
        <time>2013-09-13T15:36:53Z</time>
      </trkpt>
      <trkpt lat="48.78199" lon="-0.61767">
        <ele>61.4</ele>
        <time>2013-09-13T15:37:11Z</time>
      </trkpt>
      <trkpt lat="48.78189" lon="-0.61869">
        <ele>61.6</ele>
        <time>2013-09-13T15:37:24Z</time>
      </trkpt>
      <trkpt lat="48.78187" lon="-0.61876">
        <ele>61.6</ele>
        <time>2013-09-13T15:37:25Z</time>
      </trkpt>
      <trkpt lat="48.78184" lon="-0.61883">
        <ele>61.8</ele>
        <time>2013-09-13T15:37:26Z</time>
      </trkpt>
      <trkpt lat="48.78181" lon="-0.6189">
        <ele>61.8</ele>
        <time>2013-09-13T15:37:27Z</time>
      </trkpt>
      <trkpt lat="48.78177" lon="-0.61896">
        <ele>61.8</ele>
        <time>2013-09-13T15:37:28Z</time>
      </trkpt>
      <trkpt lat="48.78173" lon="-0.61902">
        <ele>61.8</ele>
        <time>2013-09-13T15:37:29Z</time>
      </trkpt>
      <trkpt lat="48.78169" lon="-0.61907">
        <ele>61.8</ele>
        <time>2013-09-13T15:37:30Z</time>
      </trkpt>
      <trkpt lat="48.78142" lon="-0.61932">
        <ele>62</ele>
        <time>2013-09-13T15:37:36Z</time>
      </trkpt>
      <trkpt lat="48.78129" lon="-0.61944">
        <ele>62.2</ele>
        <time>2013-09-13T15:37:39Z</time>
      </trkpt>
      <trkpt lat="48.78122" lon="-0.61954">
        <ele>62.4</ele>
        <time>2013-09-13T15:37:41Z</time>
      </trkpt>
      <trkpt lat="48.78119" lon="-0.6196">
        <ele>62.6</ele>
        <time>2013-09-13T15:37:42Z</time>
      </trkpt>
      <trkpt lat="48.78117" lon="-0.61967">
        <ele>62.6</ele>
        <time>2013-09-13T15:37:43Z</time>
      </trkpt>
      <trkpt lat="48.78115" lon="-0.61975">
        <ele>62.8</ele>
        <time>2013-09-13T15:37:44Z</time>
      </trkpt>
      <trkpt lat="48.78116" lon="-0.61982">
        <ele>62.8</ele>
        <time>2013-09-13T15:37:45Z</time>
      </trkpt>
      <trkpt lat="48.78117" lon="-0.6199">
        <ele>62.8</ele>
        <time>2013-09-13T15:37:46Z</time>
      </trkpt>
      <trkpt lat="48.78119" lon="-0.61998">
        <ele>62.8</ele>
        <time>2013-09-13T15:37:47Z</time>
      </trkpt>
      <trkpt lat="48.78121" lon="-0.62005">
        <ele>62.8</ele>
        <time>2013-09-13T15:37:48Z</time>
      </trkpt>
      <trkpt lat="48.78143" lon="-0.6208">
        <ele>62.4</ele>
        <time>2013-09-13T15:37:58Z</time>
      </trkpt>
      <trkpt lat="48.78152" lon="-0.62101">
        <ele>62.2</ele>
        <time>2013-09-13T15:38:01Z</time>
      </trkpt>
      <trkpt lat="48.78167" lon="-0.62125">
        <ele>62</ele>
        <time>2013-09-13T15:38:05Z</time>
      </trkpt>
      <trkpt lat="48.78219" lon="-0.6222">
        <ele>62.4</ele>
        <time>2013-09-13T15:38:21Z</time>
      </trkpt>
      <trkpt lat="48.78223" lon="-0.62255">
        <ele>63.6</ele>
        <time>2013-09-13T15:38:27Z</time>
      </trkpt>
      <trkpt lat="48.78221" lon="-0.62259">
        <ele>63.8</ele>
        <time>2013-09-13T15:38:28Z</time>
      </trkpt>
      <trkpt lat="48.78218" lon="-0.62261">
        <ele>64</ele>
        <time>2013-09-13T15:38:29Z</time>
      </trkpt>
      <trkpt lat="48.78215" lon="-0.62264">
        <ele>64.2</ele>
        <time>2013-09-13T15:38:30Z</time>
      </trkpt>
      <trkpt lat="48.78212" lon="-0.62265">
        <ele>64.2</ele>
        <time>2013-09-13T15:38:31Z</time>
      </trkpt>
      <trkpt lat="48.7818" lon="-0.6229">
        <ele>67.4</ele>
        <time>2013-09-13T15:38:42Z</time>
      </trkpt>
      <trkpt lat="48.78146" lon="-0.62323">
        <ele>70.6</ele>
        <time>2013-09-13T15:38:57Z</time>
      </trkpt>
      <trkpt lat="48.78114" lon="-0.62361">
        <ele>73.6</ele>
        <time>2013-09-13T15:39:13Z</time>
      </trkpt>
      <trkpt lat="48.78089" lon="-0.62387">
        <ele>76.4</ele>
        <time>2013-09-13T15:39:26Z</time>
      </trkpt>
      <trkpt lat="48.78049" lon="-0.62383">
        <ele>79.2</ele>
        <time>2013-09-13T15:39:38Z</time>
      </trkpt>
      <trkpt lat="48.78044" lon="-0.6238">
        <ele>79.4</ele>
        <time>2013-09-13T15:39:39Z</time>
      </trkpt>
      <trkpt lat="48.78039" lon="-0.62376">
        <ele>79.8</ele>
        <time>2013-09-13T15:39:40Z</time>
      </trkpt>
      <trkpt lat="48.78035" lon="-0.62371">
        <ele>80.2</ele>
        <time>2013-09-13T15:39:41Z</time>
      </trkpt>
      <trkpt lat="48.78031" lon="-0.62366">
        <ele>80.6</ele>
        <time>2013-09-13T15:39:42Z</time>
      </trkpt>
      <trkpt lat="48.78029" lon="-0.62362">
        <ele>81.2</ele>
        <time>2013-09-13T15:39:43Z</time>
      </trkpt>
      <trkpt lat="48.78026" lon="-0.62359">
        <ele>81.6</ele>
        <time>2013-09-13T15:39:44Z</time>
      </trkpt>
      <trkpt lat="48.78024" lon="-0.62357">
        <ele>82.2</ele>
        <time>2013-09-13T15:39:45Z</time>
      </trkpt>
      <trkpt lat="48.78007" lon="-0.62348">
        <ele>85.4</ele>
        <time>2013-09-13T15:39:53Z</time>
      </trkpt>
      <trkpt lat="48.77988" lon="-0.62355">
        <ele>86.4</ele>
        <time>2013-09-13T15:40:02Z</time>
      </trkpt>
      <trkpt lat="48.77987" lon="-0.62356">
        <ele>86.6</ele>
        <time>2013-09-13T15:40:03Z</time>
      </trkpt>
      <trkpt lat="48.77986" lon="-0.62358">
        <ele>86.8</ele>
        <time>2013-09-13T15:40:08Z</time>
      </trkpt>
      <trkpt lat="48.77987" lon="-0.62367">
        <ele>86.8</ele>
        <time>2013-09-13T15:40:18Z</time>
      </trkpt>
      <trkpt lat="48.77997" lon="-0.6243">
        <ele>86.6</ele>
        <time>2013-09-13T15:40:33Z</time>
      </trkpt>
      <trkpt lat="48.7801" lon="-0.62483">
        <ele>86.6</ele>
        <time>2013-09-13T15:40:43Z</time>
      </trkpt>
      <trkpt lat="48.78014" lon="-0.62501">
        <ele>86.4</ele>
        <time>2013-09-13T15:40:46Z</time>
      </trkpt>
      <trkpt lat="48.78025" lon="-0.6254">
        <ele>85.6</ele>
        <time>2013-09-13T15:40:52Z</time>
      </trkpt>
      <trkpt lat="48.7803" lon="-0.62555">
        <ele>85.2</ele>
        <time>2013-09-13T15:40:54Z</time>
      </trkpt>
      <trkpt lat="48.78056" lon="-0.62637">
        <ele>81.4</ele>
        <time>2013-09-13T15:41:03Z</time>
      </trkpt>
      <trkpt lat="48.78065" lon="-0.62676">
        <ele>79</ele>
        <time>2013-09-13T15:41:08Z</time>
      </trkpt>
      <trkpt lat="48.78073" lon="-0.62701">
        <ele>78.4</ele>
        <time>2013-09-13T15:41:12Z</time>
      </trkpt>
      <trkpt lat="48.78091" lon="-0.62765">
        <ele>80.2</ele>
        <time>2013-09-13T15:41:25Z</time>
      </trkpt>
      <trkpt lat="48.781" lon="-0.62794">
        <ele>83.4</ele>
        <time>2013-09-13T15:41:34Z</time>
      </trkpt>
      <trkpt lat="48.78114" lon="-0.62842">
        <ele>86.6</ele>
        <time>2013-09-13T15:41:50Z</time>
      </trkpt>
      <trkpt lat="48.78126" lon="-0.62875">
        <ele>87.6</ele>
        <time>2013-09-13T15:42:05Z</time>
      </trkpt>
      <trkpt lat="48.78142" lon="-0.62929">
        <ele>87.6</ele>
        <time>2013-09-13T15:42:23Z</time>
      </trkpt>
      <trkpt lat="48.7815" lon="-0.62948">
        <ele>87.4</ele>
        <time>2013-09-13T15:42:28Z</time>
      </trkpt>
      <trkpt lat="48.7812" lon="-0.6297">
        <ele>87.8</ele>
        <time>2013-09-13T15:42:41Z</time>
      </trkpt>
      <trkpt lat="48.78118" lon="-0.62972">
        <ele>88</ele>
        <time>2013-09-13T15:42:42Z</time>
      </trkpt>
      <trkpt lat="48.78116" lon="-0.63021">
        <ele>89</ele>
        <time>2013-09-13T15:42:54Z</time>
      </trkpt>
      <trkpt lat="48.78106" lon="-0.6309">
        <ele>86.4</ele>
        <time>2013-09-13T15:43:05Z</time>
      </trkpt>
      <trkpt lat="48.7809" lon="-0.63134">
        <ele>83</ele>
        <time>2013-09-13T15:43:12Z</time>
      </trkpt>
      <trkpt lat="48.78081" lon="-0.63155">
        <ele>82</ele>
        <time>2013-09-13T15:43:16Z</time>
      </trkpt>
      <trkpt lat="48.78082" lon="-0.63252">
        <ele>80</ele>
        <time>2013-09-13T15:43:31Z</time>
      </trkpt>
      <trkpt lat="48.78113" lon="-0.63311">
        <ele>79.6</ele>
        <time>2013-09-13T15:43:45Z</time>
      </trkpt>
      <trkpt lat="48.78123" lon="-0.63349">
        <ele>82.2</ele>
        <time>2013-09-13T15:43:56Z</time>
      </trkpt>
      <trkpt lat="48.78135" lon="-0.63389">
        <ele>84.2</ele>
        <time>2013-09-13T15:44:07Z</time>
      </trkpt>
      <trkpt lat="48.78155" lon="-0.6344">
        <ele>85.6</ele>
        <time>2013-09-13T15:44:21Z</time>
      </trkpt>
      <trkpt lat="48.78177" lon="-0.63509">
        <ele>85.2</ele>
        <time>2013-09-13T15:44:37Z</time>
      </trkpt>
      <trkpt lat="48.78169" lon="-0.63546">
        <ele>84.8</ele>
        <time>2013-09-13T15:44:48Z</time>
      </trkpt>
      <trkpt lat="48.78155" lon="-0.63562">
        <ele>86.2</ele>
        <time>2013-09-13T15:44:55Z</time>
      </trkpt>
      <trkpt lat="48.78155" lon="-0.63566">
        <ele>86.2</ele>
        <time>2013-09-13T15:44:56Z</time>
      </trkpt>
      <trkpt lat="48.78156" lon="-0.63569">
        <ele>86.4</ele>
        <time>2013-09-13T15:44:57Z</time>
      </trkpt>
      <trkpt lat="48.78157" lon="-0.63573">
        <ele>86.6</ele>
        <time>2013-09-13T15:44:58Z</time>
      </trkpt>
      <trkpt lat="48.78158" lon="-0.63577">
        <ele>86.6</ele>
        <time>2013-09-13T15:44:59Z</time>
      </trkpt>
      <trkpt lat="48.78174" lon="-0.63637">
        <ele>86</ele>
        <time>2013-09-13T15:45:10Z</time>
      </trkpt>
      <trkpt lat="48.7818" lon="-0.63663">
        <ele>85.2</ele>
        <time>2013-09-13T15:45:14Z</time>
      </trkpt>
      <trkpt lat="48.78206" lon="-0.6374">
        <ele>83.4</ele>
        <time>2013-09-13T15:45:29Z</time>
      </trkpt>
      <trkpt lat="48.78226" lon="-0.63787">
        <ele>85</ele>
        <time>2013-09-13T15:45:42Z</time>
      </trkpt>
      <trkpt lat="48.78259" lon="-0.63839">
        <ele>85</ele>
        <time>2013-09-13T15:45:58Z</time>
      </trkpt>
      <trkpt lat="48.78293" lon="-0.63889">
        <ele>82.2</ele>
        <time>2013-09-13T15:46:09Z</time>
      </trkpt>
      <trkpt lat="48.78297" lon="-0.63893">
        <ele>82</ele>
        <time>2013-09-13T15:46:10Z</time>
      </trkpt>
      <trkpt lat="48.78301" lon="-0.63897">
        <ele>81.6</ele>
        <time>2013-09-13T15:46:11Z</time>
      </trkpt>
      <trkpt lat="48.78306" lon="-0.63901">
        <ele>81.2</ele>
        <time>2013-09-13T15:46:12Z</time>
      </trkpt>
      <trkpt lat="48.7831" lon="-0.63905">
        <ele>80.8</ele>
        <time>2013-09-13T15:46:13Z</time>
      </trkpt>
      <trkpt lat="48.78327" lon="-0.63914">
        <ele>79.4</ele>
        <time>2013-09-13T15:46:16Z</time>
      </trkpt>
      <trkpt lat="48.78332" lon="-0.63917">
        <ele>79</ele>
        <time>2013-09-13T15:46:17Z</time>
      </trkpt>
      <trkpt lat="48.7838" lon="-0.63942">
        <ele>75.8</ele>
        <time>2013-09-13T15:46:26Z</time>
      </trkpt>
      <trkpt lat="48.78399" lon="-0.63949">
        <ele>74.8</ele>
        <time>2013-09-13T15:46:30Z</time>
      </trkpt>
      <trkpt lat="48.78403" lon="-0.63948">
        <ele>74.6</ele>
        <time>2013-09-13T15:46:31Z</time>
      </trkpt>
      <trkpt lat="48.78405" lon="-0.63945">
        <ele>74.4</ele>
        <time>2013-09-13T15:46:32Z</time>
      </trkpt>
      <trkpt lat="48.78408" lon="-0.6394">
        <ele>74.4</ele>
        <time>2013-09-13T15:46:33Z</time>
      </trkpt>
      <trkpt lat="48.78409" lon="-0.63935">
        <ele>74.2</ele>
        <time>2013-09-13T15:46:34Z</time>
      </trkpt>
      <trkpt lat="48.78411" lon="-0.6393">
        <ele>74</ele>
        <time>2013-09-13T15:46:35Z</time>
      </trkpt>
      <trkpt lat="48.78441" lon="-0.6385">
        <ele>72</ele>
        <time>2013-09-13T15:46:47Z</time>
      </trkpt>
      <trkpt lat="48.78457" lon="-0.63827">
        <ele>71.4</ele>
        <time>2013-09-13T15:46:51Z</time>
      </trkpt>
      <trkpt lat="48.78462" lon="-0.63823">
        <ele>71.4</ele>
        <time>2013-09-13T15:46:52Z</time>
      </trkpt>
      <trkpt lat="48.78471" lon="-0.63815">
        <ele>71</ele>
        <time>2013-09-13T15:46:54Z</time>
      </trkpt>
      <trkpt lat="48.78495" lon="-0.63794">
        <ele>69.8</ele>
        <time>2013-09-13T15:47:03Z</time>
      </trkpt>
      <trkpt lat="48.78497" lon="-0.63796">
        <ele>69.6</ele>
        <time>2013-09-13T15:47:04Z</time>
      </trkpt>
      <trkpt lat="48.78499" lon="-0.638">
        <ele>69.6</ele>
        <time>2013-09-13T15:47:05Z</time>
      </trkpt>
      <trkpt lat="48.78502" lon="-0.63804">
        <ele>69.6</ele>
        <time>2013-09-13T15:47:06Z</time>
      </trkpt>
      <trkpt lat="48.78503" lon="-0.63809">
        <ele>69.6</ele>
        <time>2013-09-13T15:47:07Z</time>
      </trkpt>
      <trkpt lat="48.78505" lon="-0.63814">
        <ele>69.6</ele>
        <time>2013-09-13T15:47:08Z</time>
      </trkpt>
      <trkpt lat="48.78523" lon="-0.63883">
        <ele>72.2</ele>
        <time>2013-09-13T15:47:23Z</time>
      </trkpt>
      <trkpt lat="48.7854" lon="-0.63946">
        <ele>74.2</ele>
        <time>2013-09-13T15:47:37Z</time>
      </trkpt>
      <trkpt lat="48.78557" lon="-0.64001">
        <ele>77.4</ele>
        <time>2013-09-13T15:47:51Z</time>
      </trkpt>
      <trkpt lat="48.78579" lon="-0.64065">
        <ele>80.4</ele>
        <time>2013-09-13T15:48:07Z</time>
      </trkpt>
      <trkpt lat="48.78601" lon="-0.64117">
        <ele>83.6</ele>
        <time>2013-09-13T15:48:21Z</time>
      </trkpt>
      <trkpt lat="48.7862" lon="-0.64149">
        <ele>85.8</ele>
        <time>2013-09-13T15:48:33Z</time>
      </trkpt>
      <trkpt lat="48.7865" lon="-0.64144">
        <ele>85.4</ele>
        <time>2013-09-13T15:48:42Z</time>
      </trkpt>
      <trkpt lat="48.78654" lon="-0.64145">
        <ele>85.4</ele>
        <time>2013-09-13T15:48:43Z</time>
      </trkpt>
      <trkpt lat="48.78659" lon="-0.64146">
        <ele>85.2</ele>
        <time>2013-09-13T15:48:44Z</time>
      </trkpt>
      <trkpt lat="48.78664" lon="-0.64146">
        <ele>85.2</ele>
        <time>2013-09-13T15:48:45Z</time>
      </trkpt>
      <trkpt lat="48.78668" lon="-0.64145">
        <ele>85.2</ele>
        <time>2013-09-13T15:48:46Z</time>
      </trkpt>
      <trkpt lat="48.78673" lon="-0.64144">
        <ele>85</ele>
        <time>2013-09-13T15:48:47Z</time>
      </trkpt>
      <trkpt lat="48.78678" lon="-0.64142">
        <ele>85</ele>
        <time>2013-09-13T15:48:48Z</time>
      </trkpt>
      <trkpt lat="48.78686" lon="-0.64139">
        <ele>84.6</ele>
        <time>2013-09-13T15:48:50Z</time>
      </trkpt>
      <trkpt lat="48.78691" lon="-0.64136">
        <ele>84.6</ele>
        <time>2013-09-13T15:48:51Z</time>
      </trkpt>
      <trkpt lat="48.78695" lon="-0.64133">
        <ele>84.4</ele>
        <time>2013-09-13T15:48:52Z</time>
      </trkpt>
      <trkpt lat="48.78698" lon="-0.6413">
        <ele>84.2</ele>
        <time>2013-09-13T15:48:53Z</time>
      </trkpt>
      <trkpt lat="48.78701" lon="-0.64125">
        <ele>84.2</ele>
        <time>2013-09-13T15:48:54Z</time>
      </trkpt>
      <trkpt lat="48.78703" lon="-0.64121">
        <ele>84</ele>
        <time>2013-09-13T15:48:55Z</time>
      </trkpt>
      <trkpt lat="48.78706" lon="-0.64117">
        <ele>84</ele>
        <time>2013-09-13T15:48:56Z</time>
      </trkpt>
      <trkpt lat="48.78728" lon="-0.64053">
        <ele>84</ele>
        <time>2013-09-13T15:49:12Z</time>
      </trkpt>
      <trkpt lat="48.78738" lon="-0.64045">
        <ele>84.4</ele>
        <time>2013-09-13T15:49:18Z</time>
      </trkpt>
      <trkpt lat="48.78739" lon="-0.64044">
        <ele>84.4</ele>
        <time>2013-09-13T15:49:19Z</time>
      </trkpt>
      <trkpt lat="48.78763" lon="-0.64041">
        <ele>87.2</ele>
        <time>2013-09-13T15:49:35Z</time>
      </trkpt>
      <trkpt lat="48.78782" lon="-0.64032">
        <ele>90.4</ele>
        <time>2013-09-13T15:49:49Z</time>
      </trkpt>
      <trkpt lat="48.78796" lon="-0.64025">
        <ele>93.4</ele>
        <time>2013-09-13T15:49:59Z</time>
      </trkpt>
      <trkpt lat="48.78814" lon="-0.64018">
        <ele>96.6</ele>
        <time>2013-09-13T15:50:11Z</time>
      </trkpt>
      <trkpt lat="48.78831" lon="-0.64011">
        <ele>99.8</ele>
        <time>2013-09-13T15:50:23Z</time>
      </trkpt>
      <trkpt lat="48.78848" lon="-0.64004">
        <ele>102.8</ele>
        <time>2013-09-13T15:50:38Z</time>
      </trkpt>
      <trkpt lat="48.78868" lon="-0.63996">
        <ele>106</ele>
        <time>2013-09-13T15:50:53Z</time>
      </trkpt>
      <trkpt lat="48.78885" lon="-0.63989">
        <ele>109</ele>
        <time>2013-09-13T15:51:06Z</time>
      </trkpt>
      <trkpt lat="48.789" lon="-0.6398">
        <ele>112.2</ele>
        <time>2013-09-13T15:51:17Z</time>
      </trkpt>
      <trkpt lat="48.78915" lon="-0.6397">
        <ele>115.4</ele>
        <time>2013-09-13T15:51:28Z</time>
      </trkpt>
      <trkpt lat="48.78931" lon="-0.63964">
        <ele>118.6</ele>
        <time>2013-09-13T15:51:40Z</time>
      </trkpt>
      <trkpt lat="48.78937" lon="-0.6396">
        <ele>120.2</ele>
        <time>2013-09-13T15:51:45Z</time>
      </trkpt>
      <trkpt lat="48.78938" lon="-0.63958">
        <ele>120.4</ele>
        <time>2013-09-13T15:51:46Z</time>
      </trkpt>
      <trkpt lat="48.78949" lon="-0.63948">
        <ele>123.8</ele>
        <time>2013-09-13T15:51:58Z</time>
      </trkpt>
      <trkpt lat="48.78954" lon="-0.63943">
        <ele>125.4</ele>
        <time>2013-09-13T15:52:03Z</time>
      </trkpt>
      <trkpt lat="48.7896" lon="-0.63939">
        <ele>127.4</ele>
        <time>2013-09-13T15:52:07Z</time>
      </trkpt>
      <trkpt lat="48.78962" lon="-0.63939">
        <ele>127.8</ele>
        <time>2013-09-13T15:52:08Z</time>
      </trkpt>
      <trkpt lat="48.78964" lon="-0.63938">
        <ele>128.4</ele>
        <time>2013-09-13T15:52:09Z</time>
      </trkpt>
      <trkpt lat="48.78979" lon="-0.63927">
        <ele>131.4</ele>
        <time>2013-09-13T15:52:16Z</time>
      </trkpt>
      <trkpt lat="48.78988" lon="-0.63913">
        <ele>134.6</ele>
        <time>2013-09-13T15:52:25Z</time>
      </trkpt>
      <trkpt lat="48.78997" lon="-0.63895">
        <ele>137.8</ele>
        <time>2013-09-13T15:52:43Z</time>
      </trkpt>
      <trkpt lat="48.79014" lon="-0.6389">
        <ele>140.8</ele>
        <time>2013-09-13T15:52:59Z</time>
      </trkpt>
      <trkpt lat="48.79038" lon="-0.63885">
        <ele>143.8</ele>
        <time>2013-09-13T15:53:16Z</time>
      </trkpt>
      <trkpt lat="48.79052" lon="-0.63876">
        <ele>146.8</ele>
        <time>2013-09-13T15:53:26Z</time>
      </trkpt>
      <trkpt lat="48.79059" lon="-0.63869">
        <ele>148.4</ele>
        <time>2013-09-13T15:53:32Z</time>
      </trkpt>
      <trkpt lat="48.79059" lon="-0.63864">
        <ele>150.8</ele>
        <time>2013-09-13T15:53:44Z</time>
      </trkpt>
      <trkpt lat="48.79065" lon="-0.63857">
        <ele>151.2</ele>
        <time>2013-09-13T15:54:14Z</time>
      </trkpt>
      <trkpt lat="48.79065" lon="-0.6383">
        <ele>153.2</ele>
        <time>2013-09-13T15:54:27Z</time>
      </trkpt>
      <trkpt lat="48.79068" lon="-0.63821">
        <ele>154</ele>
        <time>2013-09-13T15:54:32Z</time>
      </trkpt>
      <trkpt lat="48.79078" lon="-0.63793">
        <ele>157.4</ele>
        <time>2013-09-13T15:54:48Z</time>
      </trkpt>
      <trkpt lat="48.79095" lon="-0.63781">
        <ele>160.4</ele>
        <time>2013-09-13T15:55:01Z</time>
      </trkpt>
      <trkpt lat="48.79106" lon="-0.63775">
        <ele>162.4</ele>
        <time>2013-09-13T15:55:10Z</time>
      </trkpt>
      <trkpt lat="48.79111" lon="-0.63771">
        <ele>163</ele>
        <time>2013-09-13T15:55:14Z</time>
      </trkpt>
      <trkpt lat="48.79135" lon="-0.63754">
        <ele>164.4</ele>
        <time>2013-09-13T15:55:32Z</time>
      </trkpt>
      <trkpt lat="48.79157" lon="-0.63732">
        <ele>163.4</ele>
        <time>2013-09-13T15:55:45Z</time>
      </trkpt>
      <trkpt lat="48.79179" lon="-0.63712">
        <ele>162.4</ele>
        <time>2013-09-13T15:55:57Z</time>
      </trkpt>
      <trkpt lat="48.79196" lon="-0.63742">
        <ele>162.4</ele>
        <time>2013-09-13T15:56:11Z</time>
      </trkpt>
      <trkpt lat="48.7921" lon="-0.63775">
        <ele>162</ele>
        <time>2013-09-13T15:56:25Z</time>
      </trkpt>
      <trkpt lat="48.79218" lon="-0.63812">
        <ele>161.4</ele>
        <time>2013-09-13T15:56:39Z</time>
      </trkpt>
      <trkpt lat="48.79219" lon="-0.63856">
        <ele>160.6</ele>
        <time>2013-09-13T15:56:53Z</time>
      </trkpt>
      <trkpt lat="48.79217" lon="-0.63897">
        <ele>158.8</ele>
        <time>2013-09-13T15:57:06Z</time>
      </trkpt>
      <trkpt lat="48.7923" lon="-0.63935">
        <ele>158</ele>
        <time>2013-09-13T15:57:20Z</time>
      </trkpt>
      <trkpt lat="48.7925" lon="-0.63966">
        <ele>159.8</ele>
        <time>2013-09-13T15:57:35Z</time>
      </trkpt>
      <trkpt lat="48.79258" lon="-0.63984">
        <ele>161.8</ele>
        <time>2013-09-13T15:57:44Z</time>
      </trkpt>
      <trkpt lat="48.79267" lon="-0.6399">
        <ele>163</ele>
        <time>2013-09-13T15:57:50Z</time>
      </trkpt>
      <trkpt lat="48.79276" lon="-0.64">
        <ele>164.6</ele>
        <time>2013-09-13T15:57:56Z</time>
      </trkpt>
      <trkpt lat="48.79304" lon="-0.6402">
        <ele>167.4</ele>
        <time>2013-09-13T15:58:11Z</time>
      </trkpt>
      <trkpt lat="48.79311" lon="-0.64029">
        <ele>168</ele>
        <time>2013-09-13T15:58:17Z</time>
      </trkpt>
      <trkpt lat="48.79339" lon="-0.64054">
        <ele>170.8</ele>
        <time>2013-09-13T15:58:33Z</time>
      </trkpt>
      <trkpt lat="48.79363" lon="-0.6407">
        <ele>172.8</ele>
        <time>2013-09-13T15:58:46Z</time>
      </trkpt>
      <trkpt lat="48.79368" lon="-0.64073">
        <ele>172.8</ele>
        <time>2013-09-13T15:58:50Z</time>
      </trkpt>
      <trkpt lat="48.79398" lon="-0.64094">
        <ele>171.4</ele>
        <time>2013-09-13T15:59:03Z</time>
      </trkpt>
      <trkpt lat="48.79427" lon="-0.64112">
        <ele>168.6</ele>
        <time>2013-09-13T15:59:15Z</time>
      </trkpt>
      <trkpt lat="48.79464" lon="-0.64129">
        <ele>167.2</ele>
        <time>2013-09-13T15:59:27Z</time>
      </trkpt>
      <trkpt lat="48.79496" lon="-0.64149">
        <ele>165.4</ele>
        <time>2013-09-13T15:59:38Z</time>
      </trkpt>
      <trkpt lat="48.79528" lon="-0.64171">
        <ele>164</ele>
        <time>2013-09-13T15:59:53Z</time>
      </trkpt>
      <trkpt lat="48.79546" lon="-0.64184">
        <ele>162.4</ele>
        <time>2013-09-13T16:00:04Z</time>
      </trkpt>
      <trkpt lat="48.79578" lon="-0.64207">
        <ele>159</ele>
        <time>2013-09-13T16:00:16Z</time>
      </trkpt>
      <trkpt lat="48.79597" lon="-0.6422">
        <ele>155.8</ele>
        <time>2013-09-13T16:00:25Z</time>
      </trkpt>
      <trkpt lat="48.79619" lon="-0.64238">
        <ele>152.6</ele>
        <time>2013-09-13T16:00:33Z</time>
      </trkpt>
      <trkpt lat="48.79621" lon="-0.6424">
        <ele>152.2</ele>
        <time>2013-09-13T16:00:34Z</time>
      </trkpt>
      <trkpt lat="48.79642" lon="-0.64257">
        <ele>149</ele>
        <time>2013-09-13T16:00:44Z</time>
      </trkpt>
      <trkpt lat="48.79642" lon="-0.64258">
        <ele>147.8</ele>
        <time>2013-09-13T16:00:49Z</time>
      </trkpt>
      <trkpt lat="48.79677" lon="-0.64257">
        <ele>143.8</ele>
        <time>2013-09-13T16:01:33Z</time>
      </trkpt>
      <trkpt lat="48.79685" lon="-0.64252">
        <ele>143</ele>
        <time>2013-09-13T16:01:37Z</time>
      </trkpt>
      <trkpt lat="48.7969" lon="-0.64252">
        <ele>142</ele>
        <time>2013-09-13T16:01:46Z</time>
      </trkpt>
      <trkpt lat="48.79674" lon="-0.64254">
        <ele>142.4</ele>
        <time>2013-09-13T16:04:34Z</time>
      </trkpt>
      <trkpt lat="48.79651" lon="-0.64257">
        <ele>145.6</ele>
        <time>2013-09-13T16:04:48Z</time>
      </trkpt>
      <trkpt lat="48.79646" lon="-0.64255">
        <ele>146.2</ele>
        <time>2013-09-13T16:04:51Z</time>
      </trkpt>
      <trkpt lat="48.79647" lon="-0.64246">
        <ele>146.6</ele>
        <time>2013-09-13T16:04:56Z</time>
      </trkpt>
      <trkpt lat="48.79653" lon="-0.64207">
        <ele>145.8</ele>
        <time>2013-09-13T16:05:08Z</time>
      </trkpt>
      <trkpt lat="48.79663" lon="-0.64159">
        <ele>144</ele>
        <time>2013-09-13T16:05:19Z</time>
      </trkpt>
      <trkpt lat="48.79669" lon="-0.64116">
        <ele>142</ele>
        <time>2013-09-13T16:05:27Z</time>
      </trkpt>
      <trkpt lat="48.79676" lon="-0.64069">
        <ele>140.2</ele>
        <time>2013-09-13T16:05:34Z</time>
      </trkpt>
      <trkpt lat="48.79679" lon="-0.64053">
        <ele>139.6</ele>
        <time>2013-09-13T16:05:36Z</time>
      </trkpt>
      <trkpt lat="48.79682" lon="-0.6403">
        <ele>138.6</ele>
        <time>2013-09-13T16:05:39Z</time>
      </trkpt>
      <trkpt lat="48.79681" lon="-0.63963">
        <ele>136.8</ele>
        <time>2013-09-13T16:05:50Z</time>
      </trkpt>
      <trkpt lat="48.79676" lon="-0.63915">
        <ele>137</ele>
        <time>2013-09-13T16:06:02Z</time>
      </trkpt>
      <trkpt lat="48.79677" lon="-0.63866">
        <ele>136.8</ele>
        <time>2013-09-13T16:06:14Z</time>
      </trkpt>
      <trkpt lat="48.79684" lon="-0.63818">
        <ele>135.8</ele>
        <time>2013-09-13T16:06:26Z</time>
      </trkpt>
      <trkpt lat="48.79687" lon="-0.63775">
        <ele>133</ele>
        <time>2013-09-13T16:06:34Z</time>
      </trkpt>
      <trkpt lat="48.7968" lon="-0.63747">
        <ele>131.4</ele>
        <time>2013-09-13T16:06:37Z</time>
      </trkpt>
      <trkpt lat="48.79667" lon="-0.63683">
        <ele>127.4</ele>
        <time>2013-09-13T16:06:43Z</time>
      </trkpt>
      <trkpt lat="48.79658" lon="-0.63641">
        <ele>123.4</ele>
        <time>2013-09-13T16:06:47Z</time>
      </trkpt>
      <trkpt lat="48.79652" lon="-0.63619">
        <ele>119.4</ele>
        <time>2013-09-13T16:06:50Z</time>
      </trkpt>
      <trkpt lat="48.79647" lon="-0.63606">
        <ele>117.8</ele>
        <time>2013-09-13T16:06:52Z</time>
      </trkpt>
      <trkpt lat="48.79644" lon="-0.63589">
        <ele>116.6</ele>
        <time>2013-09-13T16:06:54Z</time>
      </trkpt>
      <trkpt lat="48.79624" lon="-0.6352">
        <ele>112.8</ele>
        <time>2013-09-13T16:07:04Z</time>
      </trkpt>
      <trkpt lat="48.79621" lon="-0.63476">
        <ele>111.8</ele>
        <time>2013-09-13T16:07:15Z</time>
      </trkpt>
      <trkpt lat="48.79632" lon="-0.63452">
        <ele>111</ele>
        <time>2013-09-13T16:07:20Z</time>
      </trkpt>
      <trkpt lat="48.79633" lon="-0.63444">
        <ele>110.8</ele>
        <time>2013-09-13T16:07:21Z</time>
      </trkpt>
      <trkpt lat="48.79635" lon="-0.63436">
        <ele>110.6</ele>
        <time>2013-09-13T16:07:22Z</time>
      </trkpt>
      <trkpt lat="48.79635" lon="-0.63418">
        <ele>110</ele>
        <time>2013-09-13T16:07:24Z</time>
      </trkpt>
      <trkpt lat="48.79635" lon="-0.63409">
        <ele>109.6</ele>
        <time>2013-09-13T16:07:25Z</time>
      </trkpt>
      <trkpt lat="48.79636" lon="-0.63352">
        <ele>107.6</ele>
        <time>2013-09-13T16:07:30Z</time>
      </trkpt>
      <trkpt lat="48.79632" lon="-0.63258">
        <ele>104.4</ele>
        <time>2013-09-13T16:07:37Z</time>
      </trkpt>
      <trkpt lat="48.79632" lon="-0.63196">
        <ele>101.2</ele>
        <time>2013-09-13T16:07:41Z</time>
      </trkpt>
      <trkpt lat="48.79638" lon="-0.63129">
        <ele>98</ele>
        <time>2013-09-13T16:07:45Z</time>
      </trkpt>
      <trkpt lat="48.7965" lon="-0.63079">
        <ele>95.2</ele>
        <time>2013-09-13T16:07:48Z</time>
      </trkpt>
      <trkpt lat="48.79656" lon="-0.63062">
        <ele>94.2</ele>
        <time>2013-09-13T16:07:49Z</time>
      </trkpt>
      <trkpt lat="48.79679" lon="-0.63017">
        <ele>91</ele>
        <time>2013-09-13T16:07:52Z</time>
      </trkpt>
      <trkpt lat="48.79701" lon="-0.62972">
        <ele>87.8</ele>
        <time>2013-09-13T16:07:55Z</time>
      </trkpt>
      <trkpt lat="48.79713" lon="-0.62941">
        <ele>85.6</ele>
        <time>2013-09-13T16:07:57Z</time>
      </trkpt>
      <trkpt lat="48.79717" lon="-0.62924">
        <ele>84.4</ele>
        <time>2013-09-13T16:07:58Z</time>
      </trkpt>
      <trkpt lat="48.79728" lon="-0.62873">
        <ele>81.2</ele>
        <time>2013-09-13T16:08:01Z</time>
      </trkpt>
      <trkpt lat="48.79736" lon="-0.62829">
        <ele>78.2</ele>
        <time>2013-09-13T16:08:04Z</time>
      </trkpt>
      <trkpt lat="48.79741" lon="-0.62789">
        <ele>74.6</ele>
        <time>2013-09-13T16:08:07Z</time>
      </trkpt>
      <trkpt lat="48.79741" lon="-0.62719">
        <ele>71.2</ele>
        <time>2013-09-13T16:08:12Z</time>
      </trkpt>
      <trkpt lat="48.79736" lon="-0.6267">
        <ele>69</ele>
        <time>2013-09-13T16:08:16Z</time>
      </trkpt>
      <trkpt lat="48.79733" lon="-0.6266">
        <ele>68.6</ele>
        <time>2013-09-13T16:08:17Z</time>
      </trkpt>
      <trkpt lat="48.79718" lon="-0.62607">
        <ele>65.4</ele>
        <time>2013-09-13T16:08:24Z</time>
      </trkpt>
      <trkpt lat="48.79712" lon="-0.62592">
        <ele>62.8</ele>
        <time>2013-09-13T16:08:33Z</time>
      </trkpt>
      <trkpt lat="48.79705" lon="-0.62587">
        <ele>62</ele>
        <time>2013-09-13T16:08:47Z</time>
      </trkpt>
      <trkpt lat="48.79674" lon="-0.62614">
        <ele>61.2</ele>
        <time>2013-09-13T16:09:00Z</time>
      </trkpt>
      <trkpt lat="48.79663" lon="-0.62618">
        <ele>60.8</ele>
        <time>2013-09-13T16:09:04Z</time>
      </trkpt>
      <trkpt lat="48.79661" lon="-0.62616">
        <ele>60.6</ele>
        <time>2013-09-13T16:09:05Z</time>
      </trkpt>
      <trkpt lat="48.79659" lon="-0.62612">
        <ele>60.4</ele>
        <time>2013-09-13T16:09:06Z</time>
      </trkpt>
      <trkpt lat="48.79658" lon="-0.62608">
        <ele>60.2</ele>
        <time>2013-09-13T16:09:07Z</time>
      </trkpt>
      <trkpt lat="48.79657" lon="-0.62602">
        <ele>60.2</ele>
        <time>2013-09-13T16:09:08Z</time>
      </trkpt>
      <trkpt lat="48.79655" lon="-0.62595">
        <ele>60</ele>
        <time>2013-09-13T16:09:09Z</time>
      </trkpt>
      <trkpt lat="48.79654" lon="-0.62588">
        <ele>60</ele>
        <time>2013-09-13T16:09:10Z</time>
      </trkpt>
      <trkpt lat="48.7965" lon="-0.62571">
        <ele>59.6</ele>
        <time>2013-09-13T16:09:12Z</time>
      </trkpt>
      <trkpt lat="48.79645" lon="-0.62539">
        <ele>58.8</ele>
        <time>2013-09-13T16:09:15Z</time>
      </trkpt>
      <trkpt lat="48.79645" lon="-0.62527">
        <ele>58.4</ele>
        <time>2013-09-13T16:09:16Z</time>
      </trkpt>
      <trkpt lat="48.79648" lon="-0.62514">
        <ele>58</ele>
        <time>2013-09-13T16:09:17Z</time>
      </trkpt>
      <trkpt lat="48.79652" lon="-0.62502">
        <ele>57.4</ele>
        <time>2013-09-13T16:09:18Z</time>
      </trkpt>
      <trkpt lat="48.79658" lon="-0.62491">
        <ele>56.2</ele>
        <time>2013-09-13T16:09:19Z</time>
      </trkpt>
      <trkpt lat="48.79665" lon="-0.62481">
        <ele>55.4</ele>
        <time>2013-09-13T16:09:20Z</time>
      </trkpt>
      <trkpt lat="48.79704" lon="-0.62427">
        <ele>52.2</ele>
        <time>2013-09-13T16:09:25Z</time>
      </trkpt>
      <trkpt lat="48.79737" lon="-0.62384">
        <ele>48.8</ele>
        <time>2013-09-13T16:09:29Z</time>
      </trkpt>
      <trkpt lat="48.79744" lon="-0.62375">
        <ele>48</ele>
        <time>2013-09-13T16:09:30Z</time>
      </trkpt>
      <trkpt lat="48.79749" lon="-0.62364">
        <ele>47.2</ele>
        <time>2013-09-13T16:09:31Z</time>
      </trkpt>
      <trkpt lat="48.79751" lon="-0.62352">
        <ele>46.2</ele>
        <time>2013-09-13T16:09:32Z</time>
      </trkpt>
      <trkpt lat="48.7975" lon="-0.62339">
        <ele>45.2</ele>
        <time>2013-09-13T16:09:33Z</time>
      </trkpt>
      <trkpt lat="48.79747" lon="-0.62326">
        <ele>44.2</ele>
        <time>2013-09-13T16:09:34Z</time>
      </trkpt>
      <trkpt lat="48.79743" lon="-0.62315">
        <ele>43.4</ele>
        <time>2013-09-13T16:09:35Z</time>
      </trkpt>
      <trkpt lat="48.79739" lon="-0.62304">
        <ele>42.4</ele>
        <time>2013-09-13T16:09:36Z</time>
      </trkpt>
      <trkpt lat="48.79713" lon="-0.62238">
        <ele>39.4</ele>
        <time>2013-09-13T16:09:43Z</time>
      </trkpt>
      <trkpt lat="48.79706" lon="-0.62226">
        <ele>38.6</ele>
        <time>2013-09-13T16:09:45Z</time>
      </trkpt>
      <trkpt lat="48.797" lon="-0.62215">
        <ele>38.4</ele>
        <time>2013-09-13T16:09:47Z</time>
      </trkpt>
      <trkpt lat="48.79697" lon="-0.6221">
        <ele>38.4</ele>
        <time>2013-09-13T16:09:48Z</time>
      </trkpt>
      <trkpt lat="48.79696" lon="-0.62204">
        <ele>38.6</ele>
        <time>2013-09-13T16:09:49Z</time>
      </trkpt>
      <trkpt lat="48.79694" lon="-0.62198">
        <ele>38.6</ele>
        <time>2013-09-13T16:09:50Z</time>
      </trkpt>
      <trkpt lat="48.79694" lon="-0.62192">
        <ele>38.8</ele>
        <time>2013-09-13T16:09:51Z</time>
      </trkpt>
      <trkpt lat="48.79694" lon="-0.62186">
        <ele>39</ele>
        <time>2013-09-13T16:09:52Z</time>
      </trkpt>
      <trkpt lat="48.79695" lon="-0.62181">
        <ele>39.2</ele>
        <time>2013-09-13T16:09:53Z</time>
      </trkpt>
      <trkpt lat="48.79709" lon="-0.62116">
        <ele>42.4</ele>
        <time>2013-09-13T16:10:06Z</time>
      </trkpt>
      <trkpt lat="48.79719" lon="-0.6207">
        <ele>45.6</ele>
        <time>2013-09-13T16:10:16Z</time>
      </trkpt>
      <trkpt lat="48.79721" lon="-0.62024">
        <ele>48.8</ele>
        <time>2013-09-13T16:10:28Z</time>
      </trkpt>
      <trkpt lat="48.79717" lon="-0.61976">
        <ele>52</ele>
        <time>2013-09-13T16:10:41Z</time>
      </trkpt>
      <trkpt lat="48.79711" lon="-0.61916">
        <ele>55</ele>
        <time>2013-09-13T16:10:57Z</time>
      </trkpt>
      <trkpt lat="48.79708" lon="-0.61856">
        <ele>58</ele>
        <time>2013-09-13T16:11:13Z</time>
      </trkpt>
      <trkpt lat="48.79702" lon="-0.61823">
        <ele>59</ele>
        <time>2013-09-13T16:11:25Z</time>
      </trkpt>
      <trkpt lat="48.79699" lon="-0.61813">
        <ele>59.4</ele>
        <time>2013-09-13T16:11:29Z</time>
      </trkpt>
      <trkpt lat="48.79694" lon="-0.61808">
        <ele>59.6</ele>
        <time>2013-09-13T16:11:32Z</time>
      </trkpt>
      <trkpt lat="48.79666" lon="-0.61806">
        <ele>60.4</ele>
        <time>2013-09-13T16:11:45Z</time>
      </trkpt>
      <trkpt lat="48.79634" lon="-0.61786">
        <ele>62.4</ele>
        <time>2013-09-13T16:12:02Z</time>
      </trkpt>
      <trkpt lat="48.79612" lon="-0.61769">
        <ele>64.2</ele>
        <time>2013-09-13T16:12:14Z</time>
      </trkpt>
      <trkpt lat="48.7959" lon="-0.61747">
        <ele>66.2</ele>
        <time>2013-09-13T16:12:27Z</time>
      </trkpt>
      <trkpt lat="48.7956" lon="-0.61742">
        <ele>68.2</ele>
        <time>2013-09-13T16:12:40Z</time>
      </trkpt>
      <trkpt lat="48.7953" lon="-0.6174">
        <ele>70.8</ele>
        <time>2013-09-13T16:12:55Z</time>
      </trkpt>
      <trkpt lat="48.79518" lon="-0.61736">
        <ele>71.6</ele>
        <time>2013-09-13T16:13:02Z</time>
      </trkpt>
      <trkpt lat="48.79489" lon="-0.61731">
        <ele>73.4</ele>
        <time>2013-09-13T16:13:17Z</time>
      </trkpt>
      <trkpt lat="48.79465" lon="-0.6172">
        <ele>75.6</ele>
        <time>2013-09-13T16:13:34Z</time>
      </trkpt>
      <trkpt lat="48.79438" lon="-0.61701">
        <ele>77.2</ele>
        <time>2013-09-13T16:13:49Z</time>
      </trkpt>
      <trkpt lat="48.79414" lon="-0.6168">
        <ele>78.6</ele>
        <time>2013-09-13T16:14:02Z</time>
      </trkpt>
      <trkpt lat="48.7939" lon="-0.61658">
        <ele>80.4</ele>
        <time>2013-09-13T16:14:16Z</time>
      </trkpt>
      <trkpt lat="48.7937" lon="-0.61641">
        <ele>82</ele>
        <time>2013-09-13T16:14:28Z</time>
      </trkpt>
      <trkpt lat="48.79338" lon="-0.61613">
        <ele>83.4</ele>
        <time>2013-09-13T16:14:45Z</time>
      </trkpt>
      <trkpt lat="48.79308" lon="-0.61584">
        <ele>84.8</ele>
        <time>2013-09-13T16:15:00Z</time>
      </trkpt>
      <trkpt lat="48.79277" lon="-0.6156">
        <ele>86.2</ele>
        <time>2013-09-13T16:15:13Z</time>
      </trkpt>
      <trkpt lat="48.79244" lon="-0.61547">
        <ele>87.8</ele>
        <time>2013-09-13T16:15:27Z</time>
      </trkpt>
      <trkpt lat="48.79208" lon="-0.61533">
        <ele>88.4</ele>
        <time>2013-09-13T16:15:40Z</time>
      </trkpt>
      <trkpt lat="48.79168" lon="-0.6152">
        <ele>89.6</ele>
        <time>2013-09-13T16:15:53Z</time>
      </trkpt>
      <trkpt lat="48.79133" lon="-0.61503">
        <ele>90.4</ele>
        <time>2013-09-13T16:16:05Z</time>
      </trkpt>
      <trkpt lat="48.79094" lon="-0.6148">
        <ele>90.8</ele>
        <time>2013-09-13T16:16:18Z</time>
      </trkpt>
      <trkpt lat="48.79061" lon="-0.61466">
        <ele>91.6</ele>
        <time>2013-09-13T16:16:29Z</time>
      </trkpt>
      <trkpt lat="48.7903" lon="-0.61453">
        <ele>92.2</ele>
        <time>2013-09-13T16:16:40Z</time>
      </trkpt>
      <trkpt lat="48.7902" lon="-0.61441">
        <ele>92.6</ele>
        <time>2013-09-13T16:16:49Z</time>
      </trkpt>
      <trkpt lat="48.7902" lon="-0.61433">
        <ele>92.8</ele>
        <time>2013-09-13T16:17:04Z</time>
      </trkpt>
      <trkpt lat="48.7903" lon="-0.61391">
        <ele>93</ele>
        <time>2013-09-13T16:17:17Z</time>
      </trkpt>
      <trkpt lat="48.79042" lon="-0.61335">
        <ele>93</ele>
        <time>2013-09-13T16:17:30Z</time>
      </trkpt>
      <trkpt lat="48.79056" lon="-0.61273">
        <ele>93</ele>
        <time>2013-09-13T16:17:44Z</time>
      </trkpt>
      <trkpt lat="48.79068" lon="-0.61231">
        <ele>92.8</ele>
        <time>2013-09-13T16:17:53Z</time>
      </trkpt>
      <trkpt lat="48.79071" lon="-0.61218">
        <ele>92.8</ele>
        <time>2013-09-13T16:17:57Z</time>
      </trkpt>
      <trkpt lat="48.79092" lon="-0.61163">
        <ele>92.8</ele>
        <time>2013-09-13T16:18:09Z</time>
      </trkpt>
      <trkpt lat="48.79107" lon="-0.61103">
        <ele>92.6</ele>
        <time>2013-09-13T16:18:23Z</time>
      </trkpt>
      <trkpt lat="48.79119" lon="-0.61053">
        <ele>92</ele>
        <time>2013-09-13T16:18:34Z</time>
      </trkpt>
      <trkpt lat="48.79134" lon="-0.60991">
        <ele>92</ele>
        <time>2013-09-13T16:18:46Z</time>
      </trkpt>
      <trkpt lat="48.79153" lon="-0.60909">
        <ele>90.8</ele>
        <time>2013-09-13T16:19:01Z</time>
      </trkpt>
      <trkpt lat="48.7917" lon="-0.60828">
        <ele>90.2</ele>
        <time>2013-09-13T16:19:16Z</time>
      </trkpt>
      <trkpt lat="48.79187" lon="-0.60759">
        <ele>89.2</ele>
        <time>2013-09-13T16:19:29Z</time>
      </trkpt>
      <trkpt lat="48.79207" lon="-0.60665">
        <ele>88</ele>
        <time>2013-09-13T16:19:48Z</time>
      </trkpt>
      <trkpt lat="48.79219" lon="-0.60594">
        <ele>87.2</ele>
        <time>2013-09-13T16:20:03Z</time>
      </trkpt>
      <trkpt lat="48.79225" lon="-0.60548">
        <ele>87.4</ele>
        <time>2013-09-13T16:20:13Z</time>
      </trkpt>
      <trkpt lat="48.79225" lon="-0.60544">
        <ele>87.4</ele>
        <time>2013-09-13T16:20:14Z</time>
      </trkpt>
      <trkpt lat="48.79217" lon="-0.6054">
        <ele>87.4</ele>
        <time>2013-09-13T16:20:18Z</time>
      </trkpt>
      <trkpt lat="48.7917" lon="-0.60556">
        <ele>88.6</ele>
        <time>2013-09-13T16:20:35Z</time>
      </trkpt>
      <trkpt lat="48.79167" lon="-0.60553">
        <ele>88.6</ele>
        <time>2013-09-13T16:20:36Z</time>
      </trkpt>
      <trkpt lat="48.79166" lon="-0.6055">
        <ele>88.8</ele>
        <time>2013-09-13T16:20:37Z</time>
      </trkpt>
      <trkpt lat="48.79165" lon="-0.60546">
        <ele>89</ele>
        <time>2013-09-13T16:20:38Z</time>
      </trkpt>
      <trkpt lat="48.79161" lon="-0.60478">
        <ele>90.2</ele>
        <time>2013-09-13T16:20:53Z</time>
      </trkpt>
      <trkpt lat="48.7917" lon="-0.60382">
        <ele>88.8</ele>
        <time>2013-09-13T16:21:09Z</time>
      </trkpt>
      <trkpt lat="48.79173" lon="-0.60307">
        <ele>88.4</ele>
        <time>2013-09-13T16:21:22Z</time>
      </trkpt>
      <trkpt lat="48.79169" lon="-0.60187">
        <ele>88.2</ele>
        <time>2013-09-13T16:21:39Z</time>
      </trkpt>
      <trkpt lat="48.79158" lon="-0.60054">
        <ele>88.6</ele>
        <time>2013-09-13T16:21:57Z</time>
      </trkpt>
      <trkpt lat="48.79153" lon="-0.59994">
        <ele>88.8</ele>
        <time>2013-09-13T16:22:05Z</time>
      </trkpt>
      <trkpt lat="48.79145" lon="-0.59874">
        <ele>89.2</ele>
        <time>2013-09-13T16:22:22Z</time>
      </trkpt>
      <trkpt lat="48.79139" lon="-0.59744">
        <ele>90</ele>
        <time>2013-09-13T16:22:43Z</time>
      </trkpt>
      <trkpt lat="48.79141" lon="-0.5974">
        <ele>90.4</ele>
        <time>2013-09-13T16:22:49Z</time>
      </trkpt>
      <trkpt lat="48.79143" lon="-0.59741">
        <ele>90.6</ele>
        <time>2013-09-13T16:24:25Z</time>
      </trkpt>
      <trkpt lat="48.79147" lon="-0.59744">
        <ele>90.4</ele>
        <time>2013-09-13T16:24:27Z</time>
      </trkpt>
      <trkpt lat="48.79193" lon="-0.59779">
        <ele>89.4</ele>
        <time>2013-09-13T16:24:41Z</time>
      </trkpt>
      <trkpt lat="48.79222" lon="-0.59801">
        <ele>88.8</ele>
        <time>2013-09-13T16:24:48Z</time>
      </trkpt>
      <trkpt lat="48.79315" lon="-0.59861">
        <ele>85.8</ele>
        <time>2013-09-13T16:25:06Z</time>
      </trkpt>
      <trkpt lat="48.79355" lon="-0.5988">
        <ele>82.8</ele>
        <time>2013-09-13T16:25:13Z</time>
      </trkpt>
      <trkpt lat="48.79359" lon="-0.59882">
        <ele>82.4</ele>
        <time>2013-09-13T16:25:14Z</time>
      </trkpt>
      <trkpt lat="48.79363" lon="-0.59882">
        <ele>82</ele>
        <time>2013-09-13T16:25:15Z</time>
      </trkpt>
      <trkpt lat="48.79366" lon="-0.5988">
        <ele>81.6</ele>
        <time>2013-09-13T16:25:16Z</time>
      </trkpt>
      <trkpt lat="48.79369" lon="-0.59876">
        <ele>81.2</ele>
        <time>2013-09-13T16:25:17Z</time>
      </trkpt>
      <trkpt lat="48.79371" lon="-0.59871">
        <ele>80.8</ele>
        <time>2013-09-13T16:25:18Z</time>
      </trkpt>
      <trkpt lat="48.79373" lon="-0.59867">
        <ele>80.6</ele>
        <time>2013-09-13T16:25:19Z</time>
      </trkpt>
      <trkpt lat="48.79376" lon="-0.59864">
        <ele>80.4</ele>
        <time>2013-09-13T16:25:20Z</time>
      </trkpt>
      <trkpt lat="48.79379" lon="-0.59863">
        <ele>80.4</ele>
        <time>2013-09-13T16:25:21Z</time>
      </trkpt>
      <trkpt lat="48.79383" lon="-0.59863">
        <ele>80.2</ele>
        <time>2013-09-13T16:25:22Z</time>
      </trkpt>
      <trkpt lat="48.79387" lon="-0.59863">
        <ele>80.2</ele>
        <time>2013-09-13T16:25:23Z</time>
      </trkpt>
      <trkpt lat="48.79402" lon="-0.59863">
        <ele>80.2</ele>
        <time>2013-09-13T16:25:26Z</time>
      </trkpt>
      <trkpt lat="48.79422" lon="-0.59857">
        <ele>79.4</ele>
        <time>2013-09-13T16:25:30Z</time>
      </trkpt>
      <trkpt lat="48.79435" lon="-0.59849">
        <ele>77.2</ele>
        <time>2013-09-13T16:25:33Z</time>
      </trkpt>
      <trkpt lat="48.7944" lon="-0.59847">
        <ele>76.6</ele>
        <time>2013-09-13T16:25:34Z</time>
      </trkpt>
      <trkpt lat="48.79444" lon="-0.59848">
        <ele>76</ele>
        <time>2013-09-13T16:25:35Z</time>
      </trkpt>
      <trkpt lat="48.79448" lon="-0.5985">
        <ele>75.4</ele>
        <time>2013-09-13T16:25:36Z</time>
      </trkpt>
      <trkpt lat="48.79451" lon="-0.59852">
        <ele>75</ele>
        <time>2013-09-13T16:25:37Z</time>
      </trkpt>
      <trkpt lat="48.79472" lon="-0.5984">
        <ele>74.4</ele>
        <time>2013-09-13T16:25:47Z</time>
      </trkpt>
      <trkpt lat="48.79475" lon="-0.59839">
        <ele>74.8</ele>
        <time>2013-09-13T16:25:48Z</time>
      </trkpt>
      <trkpt lat="48.79478" lon="-0.59839">
        <ele>75.2</ele>
        <time>2013-09-13T16:25:49Z</time>
      </trkpt>
      <trkpt lat="48.79481" lon="-0.59839">
        <ele>75.6</ele>
        <time>2013-09-13T16:25:50Z</time>
      </trkpt>
      <trkpt lat="48.79483" lon="-0.59838">
        <ele>75.8</ele>
        <time>2013-09-13T16:25:51Z</time>
      </trkpt>
      <trkpt lat="48.79485" lon="-0.59837">
        <ele>76.2</ele>
        <time>2013-09-13T16:25:52Z</time>
      </trkpt>
      <trkpt lat="48.79488" lon="-0.59837">
        <ele>76.4</ele>
        <time>2013-09-13T16:25:53Z</time>
      </trkpt>
      <trkpt lat="48.79528" lon="-0.59837">
        <ele>79.4</ele>
        <time>2013-09-13T16:26:07Z</time>
      </trkpt>
      <trkpt lat="48.79544" lon="-0.5984">
        <ele>79.8</ele>
        <time>2013-09-13T16:26:13Z</time>
      </trkpt>
      <trkpt lat="48.79546" lon="-0.59837">
        <ele>79.8</ele>
        <time>2013-09-13T16:26:14Z</time>
      </trkpt>
      <trkpt lat="48.79547" lon="-0.59834">
        <ele>80</ele>
        <time>2013-09-13T16:26:15Z</time>
      </trkpt>
      <trkpt lat="48.79548" lon="-0.59829">
        <ele>80</ele>
        <time>2013-09-13T16:26:16Z</time>
      </trkpt>
      <trkpt lat="48.79547" lon="-0.59825">
        <ele>80</ele>
        <time>2013-09-13T16:26:17Z</time>
      </trkpt>
      <trkpt lat="48.79552" lon="-0.59755">
        <ele>82</ele>
        <time>2013-09-13T16:26:32Z</time>
      </trkpt>
      <trkpt lat="48.79566" lon="-0.59674">
        <ele>84.4</ele>
        <time>2013-09-13T16:26:49Z</time>
      </trkpt>
      <trkpt lat="48.79578" lon="-0.59596">
        <ele>85.8</ele>
        <time>2013-09-13T16:27:04Z</time>
      </trkpt>
      <trkpt lat="48.79597" lon="-0.59485">
        <ele>87.8</ele>
        <time>2013-09-13T16:27:24Z</time>
      </trkpt>
      <trkpt lat="48.79617" lon="-0.59358">
        <ele>89.6</ele>
        <time>2013-09-13T16:27:46Z</time>
      </trkpt>
      <trkpt lat="48.79635" lon="-0.59237">
        <ele>91.4</ele>
        <time>2013-09-13T16:28:07Z</time>
      </trkpt>
      <trkpt lat="48.79642" lon="-0.59138">
        <ele>92.6</ele>
        <time>2013-09-13T16:28:26Z</time>
      </trkpt>
      <trkpt lat="48.79597" lon="-0.59117">
        <ele>92.6</ele>
        <time>2013-09-13T16:28:39Z</time>
      </trkpt>
      <trkpt lat="48.7951" lon="-0.59077">
        <ele>92.2</ele>
        <time>2013-09-13T16:28:59Z</time>
      </trkpt>
      <trkpt lat="48.79417" lon="-0.59041">
        <ele>92.8</ele>
        <time>2013-09-13T16:29:21Z</time>
      </trkpt>
      <trkpt lat="48.79413" lon="-0.59039">
        <ele>93</ele>
        <time>2013-09-13T16:29:22Z</time>
      </trkpt>
      <trkpt lat="48.79334" lon="-0.59013">
        <ele>94.2</ele>
        <time>2013-09-13T16:29:41Z</time>
      </trkpt>
      <trkpt lat="48.79242" lon="-0.58975">
        <ele>96.4</ele>
        <time>2013-09-13T16:30:04Z</time>
      </trkpt>
      <trkpt lat="48.79155" lon="-0.5895">
        <ele>99.4</ele>
        <time>2013-09-13T16:30:26Z</time>
      </trkpt>
      <trkpt lat="48.79082" lon="-0.58942">
        <ele>102.6</ele>
        <time>2013-09-13T16:30:46Z</time>
      </trkpt>
      <trkpt lat="48.79008" lon="-0.58921">
        <ele>104.8</ele>
        <time>2013-09-13T16:31:08Z</time>
      </trkpt>
      <trkpt lat="48.78923" lon="-0.58893">
        <ele>107.8</ele>
        <time>2013-09-13T16:31:33Z</time>
      </trkpt>
      <trkpt lat="48.7886" lon="-0.5887">
        <ele>108.8</ele>
        <time>2013-09-13T16:31:51Z</time>
      </trkpt>
      <trkpt lat="48.78821" lon="-0.58834">
        <ele>109.6</ele>
        <time>2013-09-13T16:32:05Z</time>
      </trkpt>
      <trkpt lat="48.78777" lon="-0.58791">
        <ele>110.6</ele>
        <time>2013-09-13T16:32:20Z</time>
      </trkpt>
      <trkpt lat="48.78774" lon="-0.58788">
        <ele>110.6</ele>
        <time>2013-09-13T16:32:21Z</time>
      </trkpt>
      <trkpt lat="48.78725" lon="-0.58745">
        <ele>111</ele>
        <time>2013-09-13T16:32:36Z</time>
      </trkpt>
      <trkpt lat="48.78677" lon="-0.58695">
        <ele>111</ele>
        <time>2013-09-13T16:32:50Z</time>
      </trkpt>
      <trkpt lat="48.78622" lon="-0.58615">
        <ele>112.2</ele>
        <time>2013-09-13T16:33:08Z</time>
      </trkpt>
      <trkpt lat="48.7858" lon="-0.58535">
        <ele>115</ele>
        <time>2013-09-13T16:33:26Z</time>
      </trkpt>
      <trkpt lat="48.78554" lon="-0.58461">
        <ele>117</ele>
        <time>2013-09-13T16:33:42Z</time>
      </trkpt>
      <trkpt lat="48.78521" lon="-0.58368">
        <ele>118.8</ele>
        <time>2013-09-13T16:34:02Z</time>
      </trkpt>
      <trkpt lat="48.78486" lon="-0.58308">
        <ele>119.6</ele>
        <time>2013-09-13T16:34:17Z</time>
      </trkpt>
      <trkpt lat="48.78437" lon="-0.58275">
        <ele>119.8</ele>
        <time>2013-09-13T16:34:32Z</time>
      </trkpt>
      <trkpt lat="48.78361" lon="-0.58247">
        <ele>119.2</ele>
        <time>2013-09-13T16:34:52Z</time>
      </trkpt>
      <trkpt lat="48.78278" lon="-0.58235">
        <ele>117.8</ele>
        <time>2013-09-13T16:35:12Z</time>
      </trkpt>
      <trkpt lat="48.78224" lon="-0.58244">
        <ele>116.2</ele>
        <time>2013-09-13T16:35:23Z</time>
      </trkpt>
      <trkpt lat="48.78138" lon="-0.58259">
        <ele>113.2</ele>
        <time>2013-09-13T16:35:40Z</time>
      </trkpt>
      <trkpt lat="48.78133" lon="-0.5826">
        <ele>112.8</ele>
        <time>2013-09-13T16:35:41Z</time>
      </trkpt>
      <trkpt lat="48.7812" lon="-0.58265">
        <ele>112.4</ele>
        <time>2013-09-13T16:35:44Z</time>
      </trkpt>
      <trkpt lat="48.78034" lon="-0.58292">
        <ele>109.6</ele>
        <time>2013-09-13T16:35:59Z</time>
      </trkpt>
      <trkpt lat="48.78029" lon="-0.58293">
        <ele>109.4</ele>
        <time>2013-09-13T16:36:00Z</time>
      </trkpt>
      <trkpt lat="48.78017" lon="-0.58291">
        <ele>109.2</ele>
        <time>2013-09-13T16:36:02Z</time>
      </trkpt>
      <trkpt lat="48.78012" lon="-0.58289">
        <ele>109</ele>
        <time>2013-09-13T16:36:03Z</time>
      </trkpt>
      <trkpt lat="48.78006" lon="-0.58286">
        <ele>109</ele>
        <time>2013-09-13T16:36:04Z</time>
      </trkpt>
      <trkpt lat="48.78001" lon="-0.58281">
        <ele>108.8</ele>
        <time>2013-09-13T16:36:05Z</time>
      </trkpt>
      <trkpt lat="48.77996" lon="-0.58276">
        <ele>108.6</ele>
        <time>2013-09-13T16:36:06Z</time>
      </trkpt>
      <trkpt lat="48.77992" lon="-0.58269">
        <ele>108.6</ele>
        <time>2013-09-13T16:36:07Z</time>
      </trkpt>
      <trkpt lat="48.77987" lon="-0.58261">
        <ele>108.4</ele>
        <time>2013-09-13T16:36:08Z</time>
      </trkpt>
      <trkpt lat="48.77983" lon="-0.58253">
        <ele>108.2</ele>
        <time>2013-09-13T16:36:09Z</time>
      </trkpt>
      <trkpt lat="48.77944" lon="-0.58165">
        <ele>106</ele>
        <time>2013-09-13T16:36:19Z</time>
      </trkpt>
      <trkpt lat="48.77938" lon="-0.58158">
        <ele>105.8</ele>
        <time>2013-09-13T16:36:20Z</time>
      </trkpt>
      <trkpt lat="48.77933" lon="-0.58151">
        <ele>105.4</ele>
        <time>2013-09-13T16:36:21Z</time>
      </trkpt>
      <trkpt lat="48.77927" lon="-0.58146">
        <ele>105.2</ele>
        <time>2013-09-13T16:36:22Z</time>
      </trkpt>
      <trkpt lat="48.77921" lon="-0.58141">
        <ele>104.8</ele>
        <time>2013-09-13T16:36:23Z</time>
      </trkpt>
      <trkpt lat="48.77862" lon="-0.58119">
        <ele>101.8</ele>
        <time>2013-09-13T16:36:31Z</time>
      </trkpt>
      <trkpt lat="48.77847" lon="-0.58119">
        <ele>100.8</ele>
        <time>2013-09-13T16:36:33Z</time>
      </trkpt>
      <trkpt lat="48.77839" lon="-0.5812">
        <ele>100.6</ele>
        <time>2013-09-13T16:36:34Z</time>
      </trkpt>
      <trkpt lat="48.77813" lon="-0.58129">
        <ele>99.6</ele>
        <time>2013-09-13T16:36:38Z</time>
      </trkpt>
      <trkpt lat="48.77782" lon="-0.58154">
        <ele>98.8</ele>
        <time>2013-09-13T16:36:45Z</time>
      </trkpt>
      <trkpt lat="48.77748" lon="-0.58189">
        <ele>99.4</ele>
        <time>2013-09-13T16:36:54Z</time>
      </trkpt>
      <trkpt lat="48.77736" lon="-0.58205">
        <ele>100</ele>
        <time>2013-09-13T16:36:58Z</time>
      </trkpt>
      <trkpt lat="48.77733" lon="-0.5821">
        <ele>100.2</ele>
        <time>2013-09-13T16:36:59Z</time>
      </trkpt>
      <trkpt lat="48.77711" lon="-0.58241">
        <ele>101.6</ele>
        <time>2013-09-13T16:37:05Z</time>
      </trkpt>
      <trkpt lat="48.77698" lon="-0.58252">
        <ele>102.6</ele>
        <time>2013-09-13T16:37:08Z</time>
      </trkpt>
      <trkpt lat="48.77693" lon="-0.58254">
        <ele>102.8</ele>
        <time>2013-09-13T16:37:09Z</time>
      </trkpt>
      <trkpt lat="48.77688" lon="-0.58256">
        <ele>103.2</ele>
        <time>2013-09-13T16:37:10Z</time>
      </trkpt>
      <trkpt lat="48.77683" lon="-0.58256">
        <ele>103.4</ele>
        <time>2013-09-13T16:37:11Z</time>
      </trkpt>
      <trkpt lat="48.77677" lon="-0.58257">
        <ele>103.6</ele>
        <time>2013-09-13T16:37:12Z</time>
      </trkpt>
      <trkpt lat="48.77672" lon="-0.58257">
        <ele>104</ele>
        <time>2013-09-13T16:37:13Z</time>
      </trkpt>
      <trkpt lat="48.77667" lon="-0.58257">
        <ele>104.4</ele>
        <time>2013-09-13T16:37:14Z</time>
      </trkpt>
      <trkpt lat="48.77662" lon="-0.58256">
        <ele>104.8</ele>
        <time>2013-09-13T16:37:15Z</time>
      </trkpt>
      <trkpt lat="48.77641" lon="-0.58249">
        <ele>106</ele>
        <time>2013-09-13T16:37:19Z</time>
      </trkpt>
      <trkpt lat="48.77624" lon="-0.58237">
        <ele>107.2</ele>
        <time>2013-09-13T16:37:23Z</time>
      </trkpt>
      <trkpt lat="48.77621" lon="-0.58233">
        <ele>107.6</ele>
        <time>2013-09-13T16:37:24Z</time>
      </trkpt>
      <trkpt lat="48.77618" lon="-0.58229">
        <ele>108</ele>
        <time>2013-09-13T16:37:25Z</time>
      </trkpt>
      <trkpt lat="48.77615" lon="-0.58226">
        <ele>108.4</ele>
        <time>2013-09-13T16:37:26Z</time>
      </trkpt>
      <trkpt lat="48.77612" lon="-0.58222">
        <ele>108.6</ele>
        <time>2013-09-13T16:37:27Z</time>
      </trkpt>
      <trkpt lat="48.7761" lon="-0.58217">
        <ele>109</ele>
        <time>2013-09-13T16:37:28Z</time>
      </trkpt>
      <trkpt lat="48.77608" lon="-0.58213">
        <ele>109.4</ele>
        <time>2013-09-13T16:37:29Z</time>
      </trkpt>
      <trkpt lat="48.77592" lon="-0.58177">
        <ele>112.6</ele>
        <time>2013-09-13T16:37:39Z</time>
      </trkpt>
      <trkpt lat="48.77586" lon="-0.58169">
        <ele>113.4</ele>
        <time>2013-09-13T16:37:42Z</time>
      </trkpt>
      <trkpt lat="48.77559" lon="-0.58148">
        <ele>115.6</ele>
        <time>2013-09-13T16:37:53Z</time>
      </trkpt>
      <trkpt lat="48.77538" lon="-0.58131">
        <ele>118.2</ele>
        <time>2013-09-13T16:38:07Z</time>
      </trkpt>
      <trkpt lat="48.77513" lon="-0.58111">
        <ele>119.8</ele>
        <time>2013-09-13T16:38:22Z</time>
      </trkpt>
      <trkpt lat="48.7748" lon="-0.58084">
        <ele>121</ele>
        <time>2013-09-13T16:38:38Z</time>
      </trkpt>
      <trkpt lat="48.77435" lon="-0.58048">
        <ele>122.8</ele>
        <time>2013-09-13T16:38:55Z</time>
      </trkpt>
      <trkpt lat="48.77379" lon="-0.57999">
        <ele>122.6</ele>
        <time>2013-09-13T16:39:15Z</time>
      </trkpt>
      <trkpt lat="48.77378" lon="-0.57995">
        <ele>122.6</ele>
        <time>2013-09-13T16:39:16Z</time>
      </trkpt>
      <trkpt lat="48.77377" lon="-0.5799">
        <ele>122.6</ele>
        <time>2013-09-13T16:39:17Z</time>
      </trkpt>
      <trkpt lat="48.77377" lon="-0.57985">
        <ele>122.6</ele>
        <time>2013-09-13T16:39:18Z</time>
      </trkpt>
      <trkpt lat="48.77377" lon="-0.5798">
        <ele>122.6</ele>
        <time>2013-09-13T16:39:19Z</time>
      </trkpt>
      <trkpt lat="48.77378" lon="-0.57976">
        <ele>122.6</ele>
        <time>2013-09-13T16:39:20Z</time>
      </trkpt>
      <trkpt lat="48.77378" lon="-0.57973">
        <ele>122.4</ele>
        <time>2013-09-13T16:39:21Z</time>
      </trkpt>
      <trkpt lat="48.77385" lon="-0.57949">
        <ele>122.8</ele>
        <time>2013-09-13T16:39:28Z</time>
      </trkpt>
      <trkpt lat="48.77387" lon="-0.57946">
        <ele>123</ele>
        <time>2013-09-13T16:39:29Z</time>
      </trkpt>
      <trkpt lat="48.77423" lon="-0.57901">
        <ele>123.4</ele>
        <time>2013-09-13T16:39:44Z</time>
      </trkpt>
      <trkpt lat="48.77464" lon="-0.57857">
        <ele>123.8</ele>
        <time>2013-09-13T16:39:58Z</time>
      </trkpt>
      <trkpt lat="48.77487" lon="-0.57827">
        <ele>123.6</ele>
        <time>2013-09-13T16:40:07Z</time>
      </trkpt>
      <trkpt lat="48.77487" lon="-0.57823">
        <ele>123.6</ele>
        <time>2013-09-13T16:40:08Z</time>
      </trkpt>
      <trkpt lat="48.77485" lon="-0.57818">
        <ele>123.4</ele>
        <time>2013-09-13T16:40:09Z</time>
      </trkpt>
      <trkpt lat="48.77482" lon="-0.57815">
        <ele>123.4</ele>
        <time>2013-09-13T16:40:10Z</time>
      </trkpt>
      <trkpt lat="48.77479" lon="-0.57812">
        <ele>123.2</ele>
        <time>2013-09-13T16:40:11Z</time>
      </trkpt>
      <trkpt lat="48.77473" lon="-0.57806">
        <ele>123</ele>
        <time>2013-09-13T16:40:13Z</time>
      </trkpt>
      <trkpt lat="48.7744" lon="-0.57757">
        <ele>121.8</ele>
        <time>2013-09-13T16:40:25Z</time>
      </trkpt>
      <trkpt lat="48.77436" lon="-0.57747">
        <ele>121.6</ele>
        <time>2013-09-13T16:40:27Z</time>
      </trkpt>
      <trkpt lat="48.77431" lon="-0.57737">
        <ele>121.4</ele>
        <time>2013-09-13T16:40:29Z</time>
      </trkpt>
      <trkpt lat="48.77396" lon="-0.5764">
        <ele>124</ele>
        <time>2013-09-13T16:40:47Z</time>
      </trkpt>
      <trkpt lat="48.77383" lon="-0.57578">
        <ele>127</ele>
        <time>2013-09-13T16:41:01Z</time>
      </trkpt>
      <trkpt lat="48.7737" lon="-0.57537">
        <ele>127.8</ele>
        <time>2013-09-13T16:41:10Z</time>
      </trkpt>
      <trkpt lat="48.77358" lon="-0.57443">
        <ele>130.6</ele>
        <time>2013-09-13T16:41:32Z</time>
      </trkpt>
      <trkpt lat="48.77343" lon="-0.57382">
        <ele>132.6</ele>
        <time>2013-09-13T16:41:48Z</time>
      </trkpt>
      <trkpt lat="48.77311" lon="-0.57302">
        <ele>134.2</ele>
        <time>2013-09-13T16:42:08Z</time>
      </trkpt>
      <trkpt lat="48.77271" lon="-0.5724">
        <ele>135</ele>
        <time>2013-09-13T16:42:24Z</time>
      </trkpt>
      <trkpt lat="48.77216" lon="-0.57178">
        <ele>135.6</ele>
        <time>2013-09-13T16:42:42Z</time>
      </trkpt>
      <trkpt lat="48.77201" lon="-0.57164">
        <ele>135.4</ele>
        <time>2013-09-13T16:42:49Z</time>
      </trkpt>
      <trkpt lat="48.772" lon="-0.57163">
        <ele>135.4</ele>
        <time>2013-09-13T16:42:50Z</time>
      </trkpt>
      <trkpt lat="48.77199" lon="-0.5716">
        <ele>135.4</ele>
        <time>2013-09-13T16:42:51Z</time>
      </trkpt>
      <trkpt lat="48.77198" lon="-0.57156">
        <ele>135.4</ele>
        <time>2013-09-13T16:42:52Z</time>
      </trkpt>
      <trkpt lat="48.77198" lon="-0.57152">
        <ele>135.6</ele>
        <time>2013-09-13T16:42:53Z</time>
      </trkpt>
      <trkpt lat="48.77198" lon="-0.57147">
        <ele>135.6</ele>
        <time>2013-09-13T16:42:54Z</time>
      </trkpt>
      <trkpt lat="48.77176" lon="-0.57111">
        <ele>135.2</ele>
        <time>2013-09-13T16:43:04Z</time>
      </trkpt>
      <trkpt lat="48.7713" lon="-0.57068">
        <ele>134.6</ele>
        <time>2013-09-13T16:43:18Z</time>
      </trkpt>
      <trkpt lat="48.77126" lon="-0.57065">
        <ele>134.4</ele>
        <time>2013-09-13T16:43:19Z</time>
      </trkpt>
      <trkpt lat="48.77076" lon="-0.5703">
        <ele>134.6</ele>
        <time>2013-09-13T16:43:35Z</time>
      </trkpt>
      <trkpt lat="48.77069" lon="-0.57021">
        <ele>134.8</ele>
        <time>2013-09-13T16:43:40Z</time>
      </trkpt>
      <trkpt lat="48.77068" lon="-0.57018">
        <ele>134.8</ele>
        <time>2013-09-13T16:43:41Z</time>
      </trkpt>
      <trkpt lat="48.77076" lon="-0.56951">
        <ele>135.8</ele>
        <time>2013-09-13T16:43:55Z</time>
      </trkpt>
      <trkpt lat="48.77093" lon="-0.5688">
        <ele>138.6</ele>
        <time>2013-09-13T16:44:15Z</time>
      </trkpt>
      <trkpt lat="48.77097" lon="-0.5684">
        <ele>139.8</ele>
        <time>2013-09-13T16:44:26Z</time>
      </trkpt>
      <trkpt lat="48.77098" lon="-0.56779">
        <ele>141.8</ele>
        <time>2013-09-13T16:44:38Z</time>
      </trkpt>
      <trkpt lat="48.77104" lon="-0.56701">
        <ele>144.4</ele>
        <time>2013-09-13T16:44:54Z</time>
      </trkpt>
      <trkpt lat="48.77104" lon="-0.56664">
        <ele>145.8</ele>
        <time>2013-09-13T16:45:02Z</time>
      </trkpt>
      <trkpt lat="48.77102" lon="-0.56662">
        <ele>146</ele>
        <time>2013-09-13T16:45:03Z</time>
      </trkpt>
      <trkpt lat="48.77058" lon="-0.56649">
        <ele>148.6</ele>
        <time>2013-09-13T16:45:17Z</time>
      </trkpt>
      <trkpt lat="48.7704" lon="-0.5662">
        <ele>149.8</ele>
        <time>2013-09-13T16:45:27Z</time>
      </trkpt>
      <trkpt lat="48.77038" lon="-0.56601">
        <ele>150.6</ele>
        <time>2013-09-13T16:45:31Z</time>
      </trkpt>
      <trkpt lat="48.77025" lon="-0.56564">
        <ele>152.2</ele>
        <time>2013-09-13T16:45:40Z</time>
      </trkpt>
      <trkpt lat="48.76989" lon="-0.5652">
        <ele>154.2</ele>
        <time>2013-09-13T16:45:55Z</time>
      </trkpt>
      <trkpt lat="48.76986" lon="-0.56514">
        <ele>154.4</ele>
        <time>2013-09-13T16:45:58Z</time>
      </trkpt>
      <trkpt lat="48.76985" lon="-0.56513">
        <ele>154.4</ele>
        <time>2013-09-13T16:45:59Z</time>
      </trkpt>
      <trkpt lat="48.76983" lon="-0.56513">
        <ele>154.4</ele>
        <time>2013-09-13T16:46:00Z</time>
      </trkpt>
      <trkpt lat="48.76982" lon="-0.56511">
        <ele>154.6</ele>
        <time>2013-09-13T16:46:01Z</time>
      </trkpt>
      <trkpt lat="48.76982" lon="-0.56509">
        <ele>154.6</ele>
        <time>2013-09-13T16:46:02Z</time>
      </trkpt>
      <trkpt lat="48.76985" lon="-0.56509">
        <ele>154.6</ele>
        <time>2013-09-13T16:46:08Z</time>
      </trkpt>
      <trkpt lat="48.76985" lon="-0.56511">
        <ele>154.8</ele>
        <time>2013-09-13T16:46:09Z</time>
      </trkpt>
      <trkpt lat="48.76983" lon="-0.56513">
        <ele>154.8</ele>
        <time>2013-09-13T16:46:10Z</time>
      </trkpt>
      <trkpt lat="48.76981" lon="-0.56516">
        <ele>154.8</ele>
        <time>2013-09-13T16:46:11Z</time>
      </trkpt>
      <trkpt lat="48.76977" lon="-0.56518">
        <ele>154.8</ele>
        <time>2013-09-13T16:46:12Z</time>
      </trkpt>
      <trkpt lat="48.76974" lon="-0.5652">
        <ele>154.8</ele>
        <time>2013-09-13T16:46:13Z</time>
      </trkpt>
      <trkpt lat="48.76914" lon="-0.56521">
        <ele>153.6</ele>
        <time>2013-09-13T16:46:29Z</time>
      </trkpt>
      <trkpt lat="48.76848" lon="-0.56496">
        <ele>153</ele>
        <time>2013-09-13T16:46:47Z</time>
      </trkpt>
      <trkpt lat="48.76759" lon="-0.56461">
        <ele>153.4</ele>
        <time>2013-09-13T16:47:08Z</time>
      </trkpt>
      <trkpt lat="48.76745" lon="-0.56459">
        <ele>153.4</ele>
        <time>2013-09-13T16:47:11Z</time>
      </trkpt>
      <trkpt lat="48.76741" lon="-0.5646">
        <ele>153.4</ele>
        <time>2013-09-13T16:47:12Z</time>
      </trkpt>
      <trkpt lat="48.76736" lon="-0.56462">
        <ele>153.4</ele>
        <time>2013-09-13T16:47:13Z</time>
      </trkpt>
      <trkpt lat="48.76681" lon="-0.56489">
        <ele>153</ele>
        <time>2013-09-13T16:47:26Z</time>
      </trkpt>
      <trkpt lat="48.76677" lon="-0.56491">
        <ele>153</ele>
        <time>2013-09-13T16:47:27Z</time>
      </trkpt>
      <trkpt lat="48.76673" lon="-0.56491">
        <ele>153</ele>
        <time>2013-09-13T16:47:28Z</time>
      </trkpt>
      <trkpt lat="48.76669" lon="-0.56489">
        <ele>153</ele>
        <time>2013-09-13T16:47:29Z</time>
      </trkpt>
      <trkpt lat="48.76665" lon="-0.56487">
        <ele>153</ele>
        <time>2013-09-13T16:47:30Z</time>
      </trkpt>
      <trkpt lat="48.76662" lon="-0.56483">
        <ele>153</ele>
        <time>2013-09-13T16:47:31Z</time>
      </trkpt>
      <trkpt lat="48.76659" lon="-0.56479">
        <ele>153</ele>
        <time>2013-09-13T16:47:32Z</time>
      </trkpt>
      <trkpt lat="48.76656" lon="-0.56474">
        <ele>153</ele>
        <time>2013-09-13T16:47:33Z</time>
      </trkpt>
      <trkpt lat="48.76653" lon="-0.56469">
        <ele>153</ele>
        <time>2013-09-13T16:47:34Z</time>
      </trkpt>
      <trkpt lat="48.76607" lon="-0.56408">
        <ele>154.4</ele>
        <time>2013-09-13T16:47:50Z</time>
      </trkpt>
      <trkpt lat="48.76561" lon="-0.56352">
        <ele>155.6</ele>
        <time>2013-09-13T16:48:09Z</time>
      </trkpt>
      <trkpt lat="48.76523" lon="-0.56306">
        <ele>156.8</ele>
        <time>2013-09-13T16:48:24Z</time>
      </trkpt>
      <trkpt lat="48.76479" lon="-0.56276">
        <ele>158.2</ele>
        <time>2013-09-13T16:48:39Z</time>
      </trkpt>
      <trkpt lat="48.76443" lon="-0.56269">
        <ele>159.8</ele>
        <time>2013-09-13T16:48:52Z</time>
      </trkpt>
      <trkpt lat="48.76405" lon="-0.56214">
        <ele>161.4</ele>
        <time>2013-09-13T16:49:10Z</time>
      </trkpt>
      <trkpt lat="48.76386" lon="-0.56112">
        <ele>161</ele>
        <time>2013-09-13T16:49:29Z</time>
      </trkpt>
      <trkpt lat="48.76352" lon="-0.56033">
        <ele>162.2</ele>
        <time>2013-09-13T16:49:48Z</time>
      </trkpt>
      <trkpt lat="48.76326" lon="-0.55973">
        <ele>164.4</ele>
        <time>2013-09-13T16:50:04Z</time>
      </trkpt>
      <trkpt lat="48.76313" lon="-0.55935">
        <ele>166.8</ele>
        <time>2013-09-13T16:50:17Z</time>
      </trkpt>
      <trkpt lat="48.76299" lon="-0.55888">
        <ele>169.8</ele>
        <time>2013-09-13T16:50:35Z</time>
      </trkpt>
      <trkpt lat="48.76305" lon="-0.55845">
        <ele>173</ele>
        <time>2013-09-13T16:50:52Z</time>
      </trkpt>
      <trkpt lat="48.7632" lon="-0.55796">
        <ele>176.2</ele>
        <time>2013-09-13T16:51:11Z</time>
      </trkpt>
      <trkpt lat="48.76334" lon="-0.55754">
        <ele>178.6</ele>
        <time>2013-09-13T16:51:27Z</time>
      </trkpt>
      <trkpt lat="48.76336" lon="-0.5574">
        <ele>180.8</ele>
        <time>2013-09-13T16:51:37Z</time>
      </trkpt>
      <trkpt lat="48.7634" lon="-0.55731">
        <ele>181.8</ele>
        <time>2013-09-13T16:51:47Z</time>
      </trkpt>
      <trkpt lat="48.7635" lon="-0.55671">
        <ele>183.2</ele>
        <time>2013-09-13T16:52:03Z</time>
      </trkpt>
      <trkpt lat="48.76351" lon="-0.55616">
        <ele>186.4</ele>
        <time>2013-09-13T16:52:19Z</time>
      </trkpt>
      <trkpt lat="48.76345" lon="-0.55575">
        <ele>189.4</ele>
        <time>2013-09-13T16:52:33Z</time>
      </trkpt>
      <trkpt lat="48.76332" lon="-0.55534">
        <ele>192.6</ele>
        <time>2013-09-13T16:52:48Z</time>
      </trkpt>
      <trkpt lat="48.76318" lon="-0.55496">
        <ele>195</ele>
        <time>2013-09-13T16:53:00Z</time>
      </trkpt>
      <trkpt lat="48.76301" lon="-0.55451">
        <ele>197.8</ele>
        <time>2013-09-13T16:53:13Z</time>
      </trkpt>
      <trkpt lat="48.76288" lon="-0.5539">
        <ele>198</ele>
        <time>2013-09-13T16:53:26Z</time>
      </trkpt>
      <trkpt lat="48.76283" lon="-0.55363">
        <ele>197.4</ele>
        <time>2013-09-13T16:53:30Z</time>
      </trkpt>
      <trkpt lat="48.7625" lon="-0.55248">
        <ele>194.6</ele>
        <time>2013-09-13T16:53:43Z</time>
      </trkpt>
      <trkpt lat="48.76247" lon="-0.55237">
        <ele>194.2</ele>
        <time>2013-09-13T16:53:44Z</time>
      </trkpt>
      <trkpt lat="48.76227" lon="-0.55153">
        <ele>191.2</ele>
        <time>2013-09-13T16:53:51Z</time>
      </trkpt>
      <trkpt lat="48.76224" lon="-0.55141">
        <ele>191.2</ele>
        <time>2013-09-13T16:53:52Z</time>
      </trkpt>
      <trkpt lat="48.76201" lon="-0.55049">
        <ele>188.2</ele>
        <time>2013-09-13T16:54:00Z</time>
      </trkpt>
      <trkpt lat="48.76183" lon="-0.54918">
        <ele>186</ele>
        <time>2013-09-13T16:54:14Z</time>
      </trkpt>
      <trkpt lat="48.76172" lon="-0.54745">
        <ele>187.2</ele>
        <time>2013-09-13T16:54:32Z</time>
      </trkpt>
      <trkpt lat="48.76175" lon="-0.54641">
        <ele>189.6</ele>
        <time>2013-09-13T16:54:43Z</time>
      </trkpt>
      <trkpt lat="48.76175" lon="-0.54567">
        <ele>193</ele>
        <time>2013-09-13T16:54:51Z</time>
      </trkpt>
      <trkpt lat="48.76174" lon="-0.54505">
        <ele>195.8</ele>
        <time>2013-09-13T16:54:59Z</time>
      </trkpt>
      <trkpt lat="48.76174" lon="-0.54499">
        <ele>196</ele>
        <time>2013-09-13T16:55:00Z</time>
      </trkpt>
      <trkpt lat="48.76175" lon="-0.54431">
        <ele>198.6</ele>
        <time>2013-09-13T16:55:13Z</time>
      </trkpt>
      <trkpt lat="48.76171" lon="-0.54394">
        <ele>199</ele>
        <time>2013-09-13T16:55:24Z</time>
      </trkpt>
      <trkpt lat="48.76169" lon="-0.54391">
        <ele>199.2</ele>
        <time>2013-09-13T16:55:27Z</time>
      </trkpt>
      <trkpt lat="48.76139" lon="-0.54384">
        <ele>198.8</ele>
        <time>2013-09-13T16:55:42Z</time>
      </trkpt>
      <trkpt lat="48.76086" lon="-0.54375">
        <ele>197.6</ele>
        <time>2013-09-13T16:55:58Z</time>
      </trkpt>
      <trkpt lat="48.76015" lon="-0.5438">
        <ele>197.2</ele>
        <time>2013-09-13T16:56:16Z</time>
      </trkpt>
      <trkpt lat="48.75938" lon="-0.54405">
        <ele>197</ele>
        <time>2013-09-13T16:56:37Z</time>
      </trkpt>
      <trkpt lat="48.75858" lon="-0.54429">
        <ele>194.2</ele>
        <time>2013-09-13T16:56:54Z</time>
      </trkpt>
      <trkpt lat="48.75805" lon="-0.5444">
        <ele>191.2</ele>
        <time>2013-09-13T16:57:03Z</time>
      </trkpt>
      <trkpt lat="48.75781" lon="-0.54452">
        <ele>188</ele>
        <time>2013-09-13T16:57:13Z</time>
      </trkpt>
      <trkpt lat="48.75781" lon="-0.54452">
        <ele>187.6</ele>
        <time>2013-09-13T16:57:16Z</time>
      </trkpt>
      <trkpt lat="48.75778" lon="-0.54454">
        <ele>186.8</ele>
        <time>2013-09-13T16:58:53Z</time>
      </trkpt>
      <trkpt lat="48.75776" lon="-0.54455">
        <ele>186.8</ele>
        <time>2013-09-13T16:58:54Z</time>
      </trkpt>
      <trkpt lat="48.75737" lon="-0.54489">
        <ele>186</ele>
        <time>2013-09-13T16:59:05Z</time>
      </trkpt>
      <trkpt lat="48.75731" lon="-0.54496">
        <ele>185</ele>
        <time>2013-09-13T16:59:12Z</time>
      </trkpt>
      <trkpt lat="48.75727" lon="-0.54503">
        <ele>184.6</ele>
        <time>2013-09-13T17:00:08Z</time>
      </trkpt>
      <trkpt lat="48.75684" lon="-0.54541">
        <ele>184</ele>
        <time>2013-09-13T17:00:19Z</time>
      </trkpt>
      <trkpt lat="48.75573" lon="-0.54641">
        <ele>181</ele>
        <time>2013-09-13T17:00:37Z</time>
      </trkpt>
      <trkpt lat="48.75508" lon="-0.54699">
        <ele>177.6</ele>
        <time>2013-09-13T17:00:45Z</time>
      </trkpt>
      <trkpt lat="48.75467" lon="-0.54745">
        <ele>174.4</ele>
        <time>2013-09-13T17:00:50Z</time>
      </trkpt>
      <trkpt lat="48.75427" lon="-0.54808">
        <ele>170.4</ele>
        <time>2013-09-13T17:00:56Z</time>
      </trkpt>
      <trkpt lat="48.75386" lon="-0.54877">
        <ele>167.8</ele>
        <time>2013-09-13T17:01:03Z</time>
      </trkpt>
      <trkpt lat="48.75379" lon="-0.54885">
        <ele>167.4</ele>
        <time>2013-09-13T17:01:04Z</time>
      </trkpt>
      <trkpt lat="48.75372" lon="-0.5489">
        <ele>167</ele>
        <time>2013-09-13T17:01:05Z</time>
      </trkpt>
      <trkpt lat="48.75295" lon="-0.5493">
        <ele>163.8</ele>
        <time>2013-09-13T17:01:16Z</time>
      </trkpt>
      <trkpt lat="48.75227" lon="-0.54961">
        <ele>160.8</ele>
        <time>2013-09-13T17:01:26Z</time>
      </trkpt>
      <trkpt lat="48.75148" lon="-0.54993">
        <ele>157.8</ele>
        <time>2013-09-13T17:01:36Z</time>
      </trkpt>
      <trkpt lat="48.75109" lon="-0.55002">
        <ele>154.8</ele>
        <time>2013-09-13T17:01:42Z</time>
      </trkpt>
      <trkpt lat="48.75105" lon="-0.55005">
        <ele>154.2</ele>
        <time>2013-09-13T17:01:43Z</time>
      </trkpt>
      <trkpt lat="48.75102" lon="-0.5501">
        <ele>153.4</ele>
        <time>2013-09-13T17:01:44Z</time>
      </trkpt>
      <trkpt lat="48.75101" lon="-0.55017">
        <ele>153.2</ele>
        <time>2013-09-13T17:01:45Z</time>
      </trkpt>
      <trkpt lat="48.75101" lon="-0.55026">
        <ele>152.8</ele>
        <time>2013-09-13T17:01:46Z</time>
      </trkpt>
      <trkpt lat="48.75103" lon="-0.55035">
        <ele>152.6</ele>
        <time>2013-09-13T17:01:47Z</time>
      </trkpt>
      <trkpt lat="48.75105" lon="-0.55044">
        <ele>152.4</ele>
        <time>2013-09-13T17:01:48Z</time>
      </trkpt>
      <trkpt lat="48.75107" lon="-0.55064">
        <ele>152</ele>
        <time>2013-09-13T17:01:50Z</time>
      </trkpt>
      <trkpt lat="48.75101" lon="-0.55238">
        <ele>149.6</ele>
        <time>2013-09-13T17:02:07Z</time>
      </trkpt>
      <trkpt lat="48.75093" lon="-0.55386">
        <ele>148</ele>
        <time>2013-09-13T17:02:21Z</time>
      </trkpt>
      <trkpt lat="48.75081" lon="-0.55598">
        <ele>145.6</ele>
        <time>2013-09-13T17:02:41Z</time>
      </trkpt>
      <trkpt lat="48.75076" lon="-0.55702">
        <ele>144.2</ele>
        <time>2013-09-13T17:02:51Z</time>
      </trkpt>
      <trkpt lat="48.75076" lon="-0.55713">
        <ele>144.2</ele>
        <time>2013-09-13T17:02:52Z</time>
      </trkpt>
      <trkpt lat="48.75067" lon="-0.55857">
        <ele>142.8</ele>
        <time>2013-09-13T17:03:07Z</time>
      </trkpt>
      <trkpt lat="48.75061" lon="-0.55937">
        <ele>141.6</ele>
        <time>2013-09-13T17:03:19Z</time>
      </trkpt>
      <trkpt lat="48.7506" lon="-0.55973">
        <ele>140.6</ele>
        <time>2013-09-13T17:03:29Z</time>
      </trkpt>
      <trkpt lat="48.75051" lon="-0.56099">
        <ele>139.8</ele>
        <time>2013-09-13T17:03:41Z</time>
      </trkpt>
      <trkpt lat="48.75042" lon="-0.56285">
        <ele>138.2</ele>
        <time>2013-09-13T17:03:59Z</time>
      </trkpt>
      <trkpt lat="48.75035" lon="-0.56399">
        <ele>137.2</ele>
        <time>2013-09-13T17:04:11Z</time>
      </trkpt>
      <trkpt lat="48.75026" lon="-0.56569">
        <ele>134.2</ele>
        <time>2013-09-13T17:04:27Z</time>
      </trkpt>
      <trkpt lat="48.75027" lon="-0.56609">
        <ele>133.2</ele>
        <time>2013-09-13T17:04:31Z</time>
      </trkpt>
      <trkpt lat="48.75029" lon="-0.56616">
        <ele>133</ele>
        <time>2013-09-13T17:04:32Z</time>
      </trkpt>
      <trkpt lat="48.75032" lon="-0.56623">
        <ele>132.6</ele>
        <time>2013-09-13T17:04:33Z</time>
      </trkpt>
      <trkpt lat="48.75037" lon="-0.56636">
        <ele>132.2</ele>
        <time>2013-09-13T17:04:35Z</time>
      </trkpt>
      <trkpt lat="48.75038" lon="-0.56642">
        <ele>132</ele>
        <time>2013-09-13T17:04:36Z</time>
      </trkpt>
      <trkpt lat="48.75037" lon="-0.5665">
        <ele>131.8</ele>
        <time>2013-09-13T17:04:37Z</time>
      </trkpt>
      <trkpt lat="48.75035" lon="-0.56657">
        <ele>131.6</ele>
        <time>2013-09-13T17:04:38Z</time>
      </trkpt>
      <trkpt lat="48.7503" lon="-0.56662">
        <ele>131.2</ele>
        <time>2013-09-13T17:04:39Z</time>
      </trkpt>
      <trkpt lat="48.75026" lon="-0.56666">
        <ele>131.2</ele>
        <time>2013-09-13T17:04:40Z</time>
      </trkpt>
      <trkpt lat="48.7502" lon="-0.56669">
        <ele>131</ele>
        <time>2013-09-13T17:04:41Z</time>
      </trkpt>
      <trkpt lat="48.75015" lon="-0.56673">
        <ele>130.8</ele>
        <time>2013-09-13T17:04:42Z</time>
      </trkpt>
      <trkpt lat="48.7501" lon="-0.56677">
        <ele>130.6</ele>
        <time>2013-09-13T17:04:43Z</time>
      </trkpt>
      <trkpt lat="48.75005" lon="-0.56682">
        <ele>130.4</ele>
        <time>2013-09-13T17:04:44Z</time>
      </trkpt>
      <trkpt lat="48.74991" lon="-0.56702">
        <ele>130</ele>
        <time>2013-09-13T17:04:47Z</time>
      </trkpt>
      <trkpt lat="48.74952" lon="-0.56762">
        <ele>127.4</ele>
        <time>2013-09-13T17:04:56Z</time>
      </trkpt>
      <trkpt lat="48.74927" lon="-0.56797">
        <ele>124.4</ele>
        <time>2013-09-13T17:05:06Z</time>
      </trkpt>
      <trkpt lat="48.74924" lon="-0.56802">
        <ele>124.4</ele>
        <time>2013-09-13T17:05:07Z</time>
      </trkpt>
      <trkpt lat="48.74921" lon="-0.56808">
        <ele>123.8</ele>
        <time>2013-09-13T17:05:08Z</time>
      </trkpt>
      <trkpt lat="48.74918" lon="-0.56814">
        <ele>123.6</ele>
        <time>2013-09-13T17:05:09Z</time>
      </trkpt>
      <trkpt lat="48.74914" lon="-0.56821">
        <ele>123.2</ele>
        <time>2013-09-13T17:05:10Z</time>
      </trkpt>
      <trkpt lat="48.74909" lon="-0.56828">
        <ele>123</ele>
        <time>2013-09-13T17:05:11Z</time>
      </trkpt>
      <trkpt lat="48.74894" lon="-0.56855">
        <ele>120.6</ele>
        <time>2013-09-13T17:05:19Z</time>
      </trkpt>
      <trkpt lat="48.74894" lon="-0.56855">
        <ele>119.8</ele>
        <time>2013-09-13T17:05:22Z</time>
      </trkpt>
      <trkpt lat="48.74887" lon="-0.56866">
        <ele>119.2</ele>
        <time>2013-09-13T17:06:03Z</time>
      </trkpt>
      <trkpt lat="48.74864" lon="-0.56952">
        <ele>118.4</ele>
        <time>2013-09-13T17:06:12Z</time>
      </trkpt>
      <trkpt lat="48.74834" lon="-0.57061">
        <ele>115.4</ele>
        <time>2013-09-13T17:06:23Z</time>
      </trkpt>
      <trkpt lat="48.74816" lon="-0.57119">
        <ele>112.2</ele>
        <time>2013-09-13T17:06:32Z</time>
      </trkpt>
      <trkpt lat="48.74792" lon="-0.57179">
        <ele>110.2</ele>
        <time>2013-09-13T17:06:40Z</time>
      </trkpt>
      <trkpt lat="48.74784" lon="-0.57205">
        <ele>109</ele>
        <time>2013-09-13T17:06:48Z</time>
      </trkpt>
      <trkpt lat="48.74785" lon="-0.57205">
        <ele>108.8</ele>
        <time>2013-09-13T17:06:50Z</time>
      </trkpt>
    </trkseg>
  </trk>
</gpx>